Observation data for Fort Lewis CO on 06/26/2019      Previous  Date  Next       Current Mesonet Observations  Soil Data  Daily Summary Page  Observations in Plain Language
KFL1 260500Z 00007KT 10/01 A3025 RMK A01 T00980006  RH  053%=      5-min Rain = 0
KFL1 260501Z 00007KT 10/01 A3025 RMK A01 T00970008  RH  054%=      5-min Rain = 0
KFL1 260502Z 00007KT 10/01 A3025 RMK A01 T00950009  RH  055%=      5-min Rain = 0
KFL1 260503Z 00007KT 09/01 A3025 RMK A01 T00930008  RH  055%=      5-min Rain = 0
KFL1 260504Z 00007KT 09/01 A3025 RMK A01 T00920009  RH  056%=      5-min Rain = 0
KFL1 260505Z 35007KT 09/01 A3025 RMK A01 T00910010  RH  057%=      5-min Rain = 0
KFL1 260506Z 00007KT 09/01 A3025 RMK A01 T00890010  RH  057%=      5-min Rain = 0
KFL1 260507Z 00006KT 09/01 A3025 RMK A01 T00900011  RH  058%=      5-min Rain = 0
KFL1 260508Z 36006KT 09/01 A3025 RMK A01 T00880010  RH  058%=      5-min Rain = 0
KFL1 260509Z 00006KT 09/01 A3025 RMK A01 T00880010  RH  058%=      5-min Rain = 0
KFL1 260510Z 00006KT 09/01 A3025 RMK A01 T00880010  RH  058%=      5-min Rain = 0
KFL1 260511Z 00006KT 09/01 A3025 RMK A01 T00870008  RH  057%=      5-min Rain = 0
KFL1 260512Z 00006KT 09/01 A3025 RMK A01 T00880009  RH  058%=      5-min Rain = 0
KFL1 260513Z 00006KT 09/01 A3025 RMK A01 T00870009  RH  058%=      5-min Rain = 0
KFL1 260514Z 00007KT 09/01 A3025 RMK A01 T00870009  RH  058%=      5-min Rain = 0
KFL1 260515Z 00006KT 09/01 A3025 RMK A01 T00860005  RH  056%=      5-min Rain = 0
KFL1 260516Z 00006KT 09/00 A3025 RMK A01 T00860003  RH  056%=      5-min Rain = 0
KFL1 260517Z 00006KT 09/00 A3025 RMK A01 T00880004  RH  056%=      5-min Rain = 0
KFL1 260518Z 36006KT 09/00 A3025 RMK A01 T00870004  RH  056%=      5-min Rain = 0
KFL1 260519Z 35005KT 09/01 A3025 RMK A01 T00860005  RH  056%=      5-min Rain = 0
KFL1 260520Z 35005KT 09/01 A3025 RMK A01 T00860006  RH  057%=      5-min Rain = 0
KFL1 260521Z 35005KT 09/01 A3025 RMK A01 T00860008  RH  058%=      5-min Rain = 0
KFL1 260522Z 35004KT 09/01 A3025 RMK A01 T00850009  RH  059%=      5-min Rain = 0
KFL1 260523Z 35005KT 09/01 A3025 RMK A01 T00850006  RH  058%=      5-min Rain = 0
KFL1 260524Z 35005KT 09/00 A3025 RMK A01 T00850004  RH  057%=      5-min Rain = 0
KFL1 260525Z 35005KT 09/00 A3025 RMK A01 T00860003  RH  056%=      5-min Rain = 0
KFL1 260526Z 34005KT 09/01 A3025 RMK A01 T00880005  RH  056%=      5-min Rain = 0
KFL1 260527Z 35005KT 09/01 A3025 RMK A01 T00870005  RH  056%=      5-min Rain = 0
KFL1 260528Z 34005KT 09/01 A3025 RMK A01 T00870005  RH  057%=      5-min Rain = 0
KFL1 260529Z 34005KT 09/00 A3025 RMK A01 T00860003  RH  056%=      5-min Rain = 0
KFL1 260530Z 34005KT 09/00 A3025 RMK A01 T00870001  RH  055%=      5-min Rain = 0
KFL1 260531Z 34005KT 09/00 A3025 RMK A01 T00880000  RH  054%=      5-min Rain = 0
KFL1 260532Z 34005KT 09/M00 A3025 RMK A01 T00891002  RH  053%=      5-min Rain = 0
KFL1 260533Z 33005KT 09/M00 A3025 RMK A01 T00891003  RH  053%=      5-min Rain = 0
KFL1 260534Z 33005KT 09/M00 A3025 RMK A01 T00901002  RH  053%=      5-min Rain = 0
KFL1 260535Z 33005KT 09/M00 A3025 RMK A01 T00901002  RH  053%=      5-min Rain = 0
KFL1 260536Z 33005KT 09/M00 A3025 RMK A01 T00911001  RH  053%=      5-min Rain = 0
KFL1 260537Z 33005KT 09/00 A3025 RMK A01 T00910001  RH  053%=      5-min Rain = 0
KFL1 260538Z 33005KT 09/00 A3025 RMK A01 T00920002  RH  053%=      5-min Rain = 0
KFL1 260539Z 33005KT 09/00 A3025 RMK A01 T00900001  RH  054%=      5-min Rain = 0
KFL1 260540Z 33005KT 09/00 A3025 RMK A01 T00900001  RH  054%=      5-min Rain = 0
KFL1 260541Z 33005KT 09/M00 A3025 RMK A01 T00891001  RH  053%=      5-min Rain = 0
KFL1 260542Z 33005KT 09/M00 A3025 RMK A01 T00891001  RH  053%=      5-min Rain = 0
KFL1 260543Z 33005KT 09/00 A3025 RMK A01 T008900-0  RH  053%=      5-min Rain = 0
KFL1 260544Z 33005KT 09/M00 A3025 RMK A01 T00891001  RH  053%=      5-min Rain = 0
KFL1 260545Z 33005KT 09/M00 A3025 RMK A01 T00891002  RH  053%=      5-min Rain = 0
KFL1 260546Z 33005KT 09/M00 A3025 RMK A01 T00901001  RH  053%=      5-min Rain = 0
KFL1 260547Z 33005KT 09/M00 A3025 RMK A01 T00901001  RH  053%=      5-min Rain = 0
KFL1 260548Z 33005KT 09/M00 A3025 RMK A01 T00891002  RH  053%=      5-min Rain = 0
KFL1 260549Z 33005KT 09/M00 A3025 RMK A01 T00891004  RH  052%=      5-min Rain = 0
KFL1 260550Z 33005KT 09/M00 A3025 RMK A01 T00891003  RH  052%=      5-min Rain = 0
KFL1 260551Z 33006KT 09/M00 A3025 RMK A01 T00891003  RH  053%=      5-min Rain = 0
KFL1 260552Z 34006KT 09/M00 A3025 RMK A01 T00891002  RH  053%=      5-min Rain = 0
KFL1 260553Z 34006KT 09/M00 A3025 RMK A01 T00881003  RH  053%=      5-min Rain = 0
KFL1 260554Z 34006KT 09/M00 A3025 RMK A01 T00881004  RH  052%=      5-min Rain = 0
KFL1 260555Z 34006KT 09/M01 A3025 RMK A01 T00881005  RH  052%=      5-min Rain = 0
KFL1 260556Z 34007KT 09/M01 A3025 RMK A01 T00881005  RH  052%=      5-min Rain = 0
KFL1 260557Z 34007KT 09/M01 A3025 RMK A01 T00881005  RH  052%=      5-min Rain = 0
KFL1 260558Z 34007KT 09/M01 A3025 RMK A01 T00891005  RH  052%=      5-min Rain = 0
KFL1 260559Z 34007KT 09/M00 A3025 RMK A01 T00891004  RH  052%=      5-min Rain = 0
KFL1 260600Z 34007KT 09/M01 A3025 RMK A01 T00881006  RH  052%=      5-min Rain = 0
KFL1 260601Z 34007KT 09/M01 A3024 RMK A01 T00871007  RH  052%=      5-min Rain = 0
KFL1 260602Z 34008KT 09/M01 A3024 RMK A01 T00881006  RH  052%=      5-min Rain = 0
KFL1 260603Z 34008KT 09/M01 A3024 RMK A01 T00871007  RH  051%=      5-min Rain = 0
KFL1 260604Z 34008KT 09/M01 A3024 RMK A01 T00881007  RH  051%=      5-min Rain = 0
KFL1 260605Z 34007KT 09/M01 A3024 RMK A01 T00881008  RH  051%=      5-min Rain = 0
KFL1 260606Z 34007KT 09/M01 A3024 RMK A01 T00881009  RH  051%=      5-min Rain = 0
KFL1 260607Z 34007KT 09/M01 A3024 RMK A01 T00881009  RH  051%=      5-min Rain = 0
KFL1 260608Z 34007KT 09/M01 A3024 RMK A01 T00891008  RH  051%=      5-min Rain = 0
KFL1 260609Z 34007KT 09/M01 A3024 RMK A01 T00891008  RH  051%=      5-min Rain = 0
KFL1 260610Z 34007KT 09/M01 A3024 RMK A01 T00891008  RH  050%=      5-min Rain = 0
KFL1 260611Z 34007KT 09/M01 A3024 RMK A01 T00891009  RH  050%=      5-min Rain = 0
KFL1 260612Z 34007KT 09/M01 A3024 RMK A01 T00901009  RH  050%=      5-min Rain = 0
KFL1 260613Z 34007KT 09/M01 A3024 RMK A01 T00901009  RH  050%=      5-min Rain = 0
KFL1 260614Z 34007KT 09/M01 A3024 RMK A01 T00901008  RH  050%=      5-min Rain = 0
KFL1 260615Z 34006KT 09/M01 A3024 RMK A01 T00921008  RH  050%=      5-min Rain = 0
KFL1 260616Z 34006KT 09/M01 A3024 RMK A01 T00901010  RH  050%=      5-min Rain = 0
KFL1 260617Z 34007KT 09/M01 A3024 RMK A01 T00921008  RH  049%=      5-min Rain = 0
KFL1 260618Z 34006KT 09/M01 A3024 RMK A01 T00921008  RH  050%=      5-min Rain = 0
KFL1 260619Z 34006KT 09/M01 A3024 RMK A01 T00921008  RH  050%=      5-min Rain = 0
KFL1 260620Z 35006KT 09/M01 A3024 RMK A01 T00921008  RH  050%=      5-min Rain = 0
KFL1 260621Z 35006KT 09/M01 A3024 RMK A01 T00921008  RH  050%=      5-min Rain = 0
KFL1 260622Z 36006KT 09/M01 A3024 RMK A01 T00931008  RH  049%=      5-min Rain = 0
KFL1 260623Z 00006KT 09/M01 A3024 RMK A01 T00931011  RH  048%=      5-min Rain = 0
KFL1 260624Z 00006KT 10/M01 A3024 RMK A01 T00951013  RH  047%=      5-min Rain = 0
KFL1 260625Z 00006KT 10/M01 A3024 RMK A01 T00961013  RH  046%=      5-min Rain = 0
KFL1 260626Z 00006KT 10/M01 A3024 RMK A01 T00971014  RH  046%=      5-min Rain = 0
KFL1 260627Z 01006KT 10/M02 A3024 RMK A01 T00981015  RH  045%=      5-min Rain = 0
KFL1 260628Z 01006KT 10/M01 A3024 RMK A01 T00981014  RH  046%=      5-min Rain = 0
KFL1 260629Z 01007KT 10/M01 A3024 RMK A01 T00971013  RH  046%=      5-min Rain = 0
KFL1 260630Z 02006KT 10/M01 A3024 RMK A01 T00961012  RH  047%=      5-min Rain = 0
KFL1 260631Z 02006KT 10/M02 A3024 RMK A01 T00971016  RH  045%=      5-min Rain = 0
KFL1 260632Z 03006KT 10/M02 A3024 RMK A01 T00971023  RH  043%=      5-min Rain = 0
KFL1 260633Z 03006KT 10/M03 A3024 RMK A01 T01011025  RH  041%=      5-min Rain = 0
KFL1 260634Z 03006KT 10/M03 A3024 RMK A01 T01011027  RH  041%=      5-min Rain = 0
KFL1 260635Z 02007KT 10/M02 A3024 RMK A01 T01031020  RH  042%=      5-min Rain = 0
KFL1 260636Z 02007KT 10/M01 A3024 RMK A01 T01031012  RH  045%=      5-min Rain = 0
KFL1 260637Z 02007KT 10/M01 A3024 RMK A01 T01011010  RH  046%=      5-min Rain = 0
KFL1 260638Z 02007KT 10/M01 A3024 RMK A01 T00991012  RH  046%=      5-min Rain = 0
KFL1 260639Z 02008KT 10/M02 A3024 RMK A01 T00971015  RH  045%=      5-min Rain = 0
KFL1 260640Z 01007KT 10/M02 A3024 RMK A01 T00971017  RH  045%=      5-min Rain = 0
KFL1 260641Z 01007KT 10/M02 A3024 RMK A01 T00971017  RH  045%=      5-min Rain = 0
KFL1 260642Z 00007KT 10/M01 A3024 RMK A01 T00971014  RH  046%=      5-min Rain = 0
KFL1 260643Z 00007KT 10/M01 A3024 RMK A01 T00961010  RH  048%=      5-min Rain = 0
KFL1 260644Z 00007KT 10/M01 A3024 RMK A01 T00951005  RH  049%=      5-min Rain = 0
KFL1 260645Z 00006KT 09/M01 A3024 RMK A01 T00941006  RH  050%=      5-min Rain = 0
KFL1 260646Z 00006KT 09/M01 A3024 RMK A01 T00941006  RH  050%=      5-min Rain = 0
KFL1 260647Z 01007KT 09/M01 A3024 RMK A01 T00931007  RH  050%=      5-min Rain = 0
KFL1 260648Z 01007KT 09/M01 A3024 RMK A01 T00931005  RH  050%=      5-min Rain = 0
KFL1 260649Z 01007KT 09/M00 A3024 RMK A01 T00931004  RH  051%=      5-min Rain = 0
KFL1 260650Z 01007KT 09/M01 A3024 RMK A01 T00911006  RH  050%=      5-min Rain = 0
KFL1 260651Z 01007KT 09/M01 A3024 RMK A01 T00931007  RH  050%=      5-min Rain = 0
KFL1 260652Z 02007KT 09/M01 A3024 RMK A01 T00931012  RH  048%=      5-min Rain = 0
KFL1 260653Z 02006KT 09/M01 A3024 RMK A01 T00941012  RH  047%=      5-min Rain = 0
KFL1 260654Z 03005KT 10/M01 A3024 RMK A01 T00961012  RH  047%=      5-min Rain = 0
KFL1 260655Z 03005KT 10/M02 A3024 RMK A01 T00971017  RH  045%=      5-min Rain = 0
KFL1 260656Z 04005KT 10/M02 A3024 RMK A01 T00991022  RH  043%=      5-min Rain = 0
KFL1 260657Z 04005KT 10/M03 A3024 RMK A01 T01001025  RH  042%=      5-min Rain = 0
KFL1 260658Z 04006KT 10/M02 A3024 RMK A01 T01031023  RH  041%=      5-min Rain = 0
KFL1 260659Z 04006KT 10/M02 A3024 RMK A01 T01041024  RH  041%=      5-min Rain = 0
KFL1 260700Z 04006KT 11/M02 A3024 RMK A01 T01051024  RH  040%=      5-min Rain = 0
KFL1 260701Z 03006KT 11/M03 A3024 RMK A01 T01061025  RH  040%=      5-min Rain = 0
KFL1 260702Z 03005KT 11/M03 A3024 RMK A01 T01081025  RH  039%=      5-min Rain = 0
KFL1 260703Z 03005KT 11/M03 A3024 RMK A01 T01081028  RH  039%=      5-min Rain = 0
KFL1 260704Z 03005KT 11/M03 A3024 RMK A01 T01101027  RH  038%=      5-min Rain = 0
KFL1 260705Z 03005KT 11/M03 A3024 RMK A01 T01101028  RH  038%=      5-min Rain = 0
KFL1 260706Z 02005KT 11/M02 A3024 RMK A01 T01111023  RH  039%=      5-min Rain = 0
KFL1 260707Z 01005KT 11/M02 A3024 RMK A01 T01111018  RH  041%=      5-min Rain = 0
KFL1 260708Z 02005KT 11/M01 A3024 RMK A01 T01081011  RH  044%=      5-min Rain = 0
KFL1 260709Z 02005KT 11/M01 A3024 RMK A01 T01061010  RH  045%=      5-min Rain = 0
KFL1 260710Z 36006KT 10/M00 A3024 RMK A01 T01031002  RH  048%=      5-min Rain = 0
KFL1 260711Z 00005KT 10/00 A3024 RMK A01 T009900-0  RH  050%=      5-min Rain = 0
KFL1 260712Z 35005KT 10/M00 A3024 RMK A01 T00951002  RH  051%=      5-min Rain = 0
KFL1 260713Z 35005KT 09/M00 A3024 RMK A01 T00931004  RH  051%=      5-min Rain = 0
KFL1 260714Z 36005KT 09/M00 A3024 RMK A01 T00941002  RH  051%=      5-min Rain = 0
KFL1 260715Z 34005KT 09/M00 A3024 RMK A01 T00931004  RH  051%=      5-min Rain = 0
KFL1 260716Z 35005KT 09/M01 A3024 RMK A01 T00921005  RH  051%=      5-min Rain = 0
KFL1 260717Z 34005KT 09/M00 A3024 RMK A01 T00931002  RH  052%=      5-min Rain = 0
KFL1 260718Z 33004KT 09/00 A3024 RMK A01 T00920003  RH  054%=      5-min Rain = 0
KFL1 260719Z 33004KT 09/01 A3024 RMK A01 T00890008  RH  057%=      5-min Rain = 0
KFL1 260720Z 33004KT 09/01 A3024 RMK A01 T00860007  RH  058%=      5-min Rain = 0
KFL1 260721Z 33004KT 09/01 A3024 RMK A01 T00850007  RH  058%=      5-min Rain = 0
KFL1 260722Z 33004KT 08/01 A3024 RMK A01 T00840006  RH  058%=      5-min Rain = 0
KFL1 260723Z 33004KT 08/00 A3024 RMK A01 T00840004  RH  057%=      5-min Rain = 0
KFL1 260724Z 32004KT 09/01 A3024 RMK A01 T00860005  RH  057%=      5-min Rain = 0
KFL1 260725Z 31005KT 09/00 A3024 RMK A01 T00850004  RH  057%=      5-min Rain = 0
KFL1 260726Z 31005KT 09/00 A3024 RMK A01 T00860004  RH  056%=      5-min Rain = 0
KFL1 260727Z 30006KT 09/01 A3024 RMK A01 T00870005  RH  056%=      5-min Rain = 0
KFL1 260728Z 30006KT 09/00 A3024 RMK A01 T00890002  RH  054%=      5-min Rain = 0
KFL1 260729Z 30006KT 09/M01 A3024 RMK A01 T00921008  RH  050%=      5-min Rain = 0
KFL1 260730Z 30006KT 10/M01 A3024 RMK A01 T00981008  RH  048%=      5-min Rain = 0
KFL1 260731Z 30006KT 10/M00 A3024 RMK A01 T01011004  RH  048%=      5-min Rain = 0
KFL1 260732Z 30007KT 10/M01 A3025 RMK A01 T01021009  RH  046%=      5-min Rain = 0
KFL1 260733Z 30006KT 11/M01 A3025 RMK A01 T01051010  RH  045%=      5-min Rain = 0
KFL1 260734Z 30006KT 11/M01 A3025 RMK A01 T01061014  RH  043%=      5-min Rain = 0
KFL1 260735Z 30006KT 11/M02 A3025 RMK A01 T01101021  RH  040%=      5-min Rain = 0
KFL1 260736Z 31006KT 11/M01 A3025 RMK A01 T01121014  RH  042%=      5-min Rain = 0
KFL1 260737Z 31006KT 11/M02 A3025 RMK A01 T01111018  RH  041%=      5-min Rain = 0
KFL1 260738Z 31006KT 11/M01 A3025 RMK A01 T01131013  RH  042%=      5-min Rain = 0
KFL1 260739Z 32005KT 11/M01 A3025 RMK A01 T01101005  RH  045%=      5-min Rain = 0
KFL1 260740Z 32005KT 11/M00 A3025 RMK A01 T01061004  RH  047%=      5-min Rain = 0
KFL1 260741Z 32005KT 10/M00 A3025 RMK A01 T01031001  RH  048%=      5-min Rain = 0
KFL1 260742Z 32004KT 10/M00 A3025 RMK A01 T00981003  RH  049%=      5-min Rain = 0
KFL1 260743Z 32004KT 10/M00 A3025 RMK A01 T00971002  RH  050%=      5-min Rain = 0
KFL1 260744Z 32004KT 10/M01 A3025 RMK A01 T00971007  RH  048%=      5-min Rain = 0
KFL1 260745Z 32005KT 10/M01 A3025 RMK A01 T00981010  RH  047%=      5-min Rain = 0
KFL1 260746Z 32005KT 10/M00 A3025 RMK A01 T01011004  RH  048%=      5-min Rain = 0
KFL1 260747Z 31005KT 10/M01 A3025 RMK A01 T01001010  RH  046%=      5-min Rain = 0
KFL1 260748Z 31005KT 10/M01 A3025 RMK A01 T01011013  RH  045%=      5-min Rain = 0
KFL1 260749Z 30005KT 10/M02 A3025 RMK A01 T01031017  RH  043%=      5-min Rain = 0
KFL1 260750Z 31005KT 10/M02 A3025 RMK A01 T01041016  RH  043%=      5-min Rain = 0
KFL1 260751Z 31004KT 11/M01 A3025 RMK A01 T01051013  RH  044%=      5-min Rain = 0
KFL1 260752Z 31004KT 11/M01 A3025 RMK A01 T01051012  RH  044%=      5-min Rain = 0
KFL1 260753Z 32003KT 10/M01 A3025 RMK A01 T01041009  RH  045%=      5-min Rain = 0
KFL1 260754Z 33003KT 10/M01 A3025 RMK A01 T01041008  RH  046%=      5-min Rain = 0
KFL1 260755Z 33003KT 10/M02 A3025 RMK A01 T01011015  RH  044%=      5-min Rain = 0
KFL1 260756Z 35003KT 10/M02 A3025 RMK A01 T01021023  RH  042%=      5-min Rain = 0
KFL1 260757Z 35003KT 10/M02 A3025 RMK A01 T01021022  RH  042%=      5-min Rain = 0
KFL1 260758Z 35003KT 10/M02 A3025 RMK A01 T01011023  RH  042%=      5-min Rain = 0
KFL1 260759Z 35003KT 10/M01 A3025 RMK A01 T01021011  RH  045%=      5-min Rain = 0
KFL1 260800Z 35003KT 10/M02 A3025 RMK A01 T01001024  RH  042%=      5-min Rain = 0
KFL1 260801Z 35003KT 10/M02 A3025 RMK A01 T01011020  RH  043%=      5-min Rain = 0
KFL1 260802Z 35003KT 10/M01 A3025 RMK A01 T01011010  RH  046%=      5-min Rain = 0
KFL1 260803Z 36003KT 10/M01 A3025 RMK A01 T00981013  RH  046%=      5-min Rain = 0
KFL1 260804Z 35004KT 10/M01 A3025 RMK A01 T00951011  RH  047%=      5-min Rain = 0
KFL1 260805Z 33004KT 09/M01 A3025 RMK A01 T00931007  RH  050%=      5-min Rain = 0
KFL1 260806Z 32005KT 09/M01 A3026 RMK A01 T00901006  RH  051%=      5-min Rain = 0
KFL1 260807Z 32004KT 09/M01 A3026 RMK A01 T00861008  RH  052%=      5-min Rain = 0
KFL1 260808Z 33004KT 08/M00 A3026 RMK A01 T00841004  RH  054%=      5-min Rain = 0
KFL1 260809Z 32005KT 08/M00 A3026 RMK A01 T00811003  RH  055%=      5-min Rain = 0
KFL1 260810Z 32005KT 08/M00 A3026 RMK A01 T00791003  RH  056%=      5-min Rain = 0
KFL1 260811Z 31005KT 08/M00 A3026 RMK A01 T00771002  RH  057%=      5-min Rain = 0
KFL1 260812Z 31005KT 08/M00 A3026 RMK A01 T00771003  RH  057%=      5-min Rain = 0
KFL1 260813Z 31005KT 08/00 A3026 RMK A01 T007700-0  RH  058%=      5-min Rain = 0
KFL1 260814Z 31005KT 08/00 A3026 RMK A01 T007500-0  RH  059%=      5-min Rain = 0
KFL1 260815Z 31006KT 07/M00 A3026 RMK A01 T00741001  RH  059%=      5-min Rain = 0
KFL1 260816Z 31006KT 08/M00 A3026 RMK A01 T00751001  RH  058%=      5-min Rain = 0
KFL1 260817Z 31006KT 08/M01 A3026 RMK A01 T00761005  RH  057%=      5-min Rain = 0
KFL1 260818Z 31006KT 08/M01 A3026 RMK A01 T00791007  RH  055%=      5-min Rain = 0
KFL1 260819Z 30006KT 08/M01 A3026 RMK A01 T00811009  RH  053%=      5-min Rain = 0
KFL1 260820Z 31006KT 08/M01 A3026 RMK A01 T00821010  RH  053%=      5-min Rain = 0
KFL1 260821Z 31006KT 08/M02 A3026 RMK A01 T00841017  RH  049%=      5-min Rain = 0
KFL1 260822Z 31007KT 09/M02 A3026 RMK A01 T00861016  RH  049%=      5-min Rain = 0
KFL1 260823Z 31007KT 09/M02 A3026 RMK A01 T00881016  RH  048%=      5-min Rain = 0
KFL1 260824Z 30007KT 09/M03 A3026 RMK A01 T00911025  RH  044%=      5-min Rain = 0
KFL1 260825Z 30007KT 10/M03 A3026 RMK A01 T00971028  RH  041%=      5-min Rain = 0
KFL1 260826Z 30007KT 10/M03 A3026 RMK A01 T01011028  RH  040%=      5-min Rain = 0
KFL1 260827Z 29008KT 10/M03 A3026 RMK A01 T01041033  RH  038%=      5-min Rain = 0
KFL1 260828Z 29008KT 11/M03 A3026 RMK A01 T01071032  RH  037%=      5-min Rain = 0
KFL1 260829Z 30007KT 11/M03 A3026 RMK A01 T01101034  RH  036%=      5-min Rain = 0
KFL1 260830Z 30007KT 11/M04 A3026 RMK A01 T01121036  RH  035%=      5-min Rain = 0
KFL1 260831Z 30007KT 11/M04 A3026 RMK A01 T01141038  RH  034%=      5-min Rain = 0
KFL1 260832Z 29007KT 12/M04 A3026 RMK A01 T01161037  RH  034%=      5-min Rain = 0
KFL1 260833Z 29007KT 12/M04 A3026 RMK A01 T01181038  RH  033%=      5-min Rain = 0
KFL1 260834Z 29006KT 12/M04 A3026 RMK A01 T01201039  RH  033%=      5-min Rain = 0
KFL1 260835Z 29006KT 12/M04 A3026 RMK A01 T01221038  RH  033%=      5-min Rain = 0
KFL1 260836Z 29006KT 12/M04 A3026 RMK A01 T01231039  RH  032%=      5-min Rain = 0
KFL1 260837Z 29006KT 13/M04 A3026 RMK A01 T01251042  RH  031%=      5-min Rain = 0
KFL1 260838Z 29006KT 13/M04 A3026 RMK A01 T01271042  RH  031%=      5-min Rain = 0
KFL1 260839Z 28006KT 13/M04 A3026 RMK A01 T01281040  RH  031%=      5-min Rain = 0
KFL1 260840Z 28006KT 13/M04 A3026 RMK A01 T01291036  RH  032%=      5-min Rain = 0
KFL1 260841Z 29006KT 13/M03 A3026 RMK A01 T01281033  RH  033%=      5-min Rain = 0
KFL1 260842Z 28007KT 13/M03 A3026 RMK A01 T01251033  RH  033%=      5-min Rain = 0
KFL1 260843Z 28007KT 12/M03 A3026 RMK A01 T01241029  RH  034%=      5-min Rain = 0
KFL1 260844Z 28007KT 12/M03 A3026 RMK A01 T01231033  RH  033%=      5-min Rain = 0
KFL1 260845Z 28007KT 12/M03 A3026 RMK A01 T01231033  RH  034%=      5-min Rain = 0
KFL1 260846Z 28006KT 12/M04 A3026 RMK A01 T01221037  RH  033%=      5-min Rain = 0
KFL1 260847Z 28007KT 12/M04 A3026 RMK A01 T01231038  RH  032%=      5-min Rain = 0
KFL1 260848Z 28006KT 12/M04 A3026 RMK A01 T01231039  RH  032%=      5-min Rain = 0
KFL1 260849Z 28007KT 12/M04 A3027 RMK A01 T01231039  RH  032%=      5-min Rain = 0
KFL1 260850Z 28007KT 12/M04 A3027 RMK A01 T01231043  RH  031%=      5-min Rain = 0
KFL1 260851Z 28006KT 12/M04 A3027 RMK A01 T01241042  RH  031%=      5-min Rain = 0
KFL1 260852Z 28006KT 12/M04 A3027 RMK A01 T01241040  RH  032%=      5-min Rain = 0
KFL1 260853Z 28006KT 12/M04 A3027 RMK A01 T01231037  RH  033%=      5-min Rain = 0
KFL1 260854Z 29006KT 12/M03 A3027 RMK A01 T01231034  RH  033%=      5-min Rain = 0
KFL1 260855Z 29006KT 12/M02 A3027 RMK A01 T01211020  RH  037%=      5-min Rain = 0
KFL1 260856Z 29007KT 12/M02 A3027 RMK A01 T01161015  RH  040%=      5-min Rain = 0
KFL1 260857Z 29007KT 11/M02 A3027 RMK A01 T01121019  RH  040%=      5-min Rain = 0
KFL1 260858Z 29006KT 11/M02 A3027 RMK A01 T01101018  RH  041%=      5-min Rain = 0
KFL1 260859Z 29006KT 11/M02 A3027 RMK A01 T01061024  RH  040%=      5-min Rain = 0
KFL1 260900Z 29006KT 11/M03 A3027 RMK A01 T01101029  RH  038%=      5-min Rain = 0
KFL1 260901Z 29006KT 11/M03 A3027 RMK A01 T01111026  RH  038%=      5-min Rain = 0
KFL1 260902Z 29006KT 11/M03 A3027 RMK A01 T01121028  RH  037%=      5-min Rain = 0
KFL1 260903Z 29006KT 11/M03 A3027 RMK A01 T01131033  RH  036%=      5-min Rain = 0
KFL1 260904Z 29006KT 12/M03 A3027 RMK A01 T01171026  RH  037%=      5-min Rain = 0
KFL1 260905Z 29007KT 12/M03 A3027 RMK A01 T01161026  RH  037%=      5-min Rain = 0
KFL1 260906Z 29007KT 12/M03 A3027 RMK A01 T01171028  RH  036%=      5-min Rain = 0
KFL1 260907Z 30007KT 12/M03 A3027 RMK A01 T01171031  RH  035%=      5-min Rain = 0
KFL1 260908Z 31006KT 12/M03 A3027 RMK A01 T01181034  RH  034%=      5-min Rain = 0
KFL1 260909Z 30006KT 12/M03 A3027 RMK A01 T01211034  RH  034%=      5-min Rain = 0
KFL1 260910Z 30006KT 12/M03 A3027 RMK A01 T01221034  RH  033%=      5-min Rain = 0
KFL1 260911Z 30006KT 12/M03 A3027 RMK A01 T01221032  RH  034%=      5-min Rain = 0
KFL1 260912Z 31006KT 12/M03 A3027 RMK A01 T01211028  RH  035%=      5-min Rain = 0
KFL1 260913Z 31006KT 12/M03 A3027 RMK A01 T01191025  RH  037%=      5-min Rain = 0
KFL1 260914Z 31006KT 11/M02 A3027 RMK A01 T01141023  RH  038%=      5-min Rain = 0
KFL1 260915Z 30007KT 11/M02 A3027 RMK A01 T01141024  RH  038%=      5-min Rain = 0
KFL1 260916Z 30007KT 11/M02 A3027 RMK A01 T01111020  RH  040%=      5-min Rain = 0
KFL1 260917Z 30007KT 11/M02 A3027 RMK A01 T01101023  RH  039%=      5-min Rain = 0
KFL1 260918Z 30007KT 11/M02 A3027 RMK A01 T01091015  RH  042%=      5-min Rain = 0
KFL1 260919Z 30007KT 11/M02 A3027 RMK A01 T01071018  RH  042%=      5-min Rain = 0
KFL1 260920Z 30007KT 11/M02 A3027 RMK A01 T01071018  RH  042%=      5-min Rain = 0
KFL1 260921Z 30007KT 11/M02 A3027 RMK A01 T01071020  RH  041%=      5-min Rain = 0
KFL1 260922Z 30007KT 11/M02 A3027 RMK A01 T01081018  RH  041%=      5-min Rain = 0
KFL1 260923Z 31007KT 11/M02 A3027 RMK A01 T01081017  RH  042%=      5-min Rain = 0
KFL1 260924Z 31007KT 11/M02 A3027 RMK A01 T01101017  RH  041%=      5-min Rain = 0
KFL1 260925Z 31007KT 11/M02 A3027 RMK A01 T01091019  RH  041%=      5-min Rain = 0
KFL1 260926Z 32006KT 11/M02 A3027 RMK A01 T01101018  RH  041%=      5-min Rain = 0
KFL1 260927Z 32006KT 11/M01 A3027 RMK A01 T01091013  RH  043%=      5-min Rain = 0
KFL1 260928Z 32006KT 11/M02 A3027 RMK A01 T01061018  RH  042%=      5-min Rain = 0
KFL1 260929Z 32006KT 11/M01 A3027 RMK A01 T01061014  RH  043%=      5-min Rain = 0
KFL1 260930Z 33006KT 10/M01 A3027 RMK A01 T01011009  RH  047%=      5-min Rain = 0
KFL1 260931Z 32006KT 10/M01 A3027 RMK A01 T00981005  RH  049%=      5-min Rain = 0
KFL1 260932Z 32006KT 10/M01 A3027 RMK A01 T00951005  RH  050%=      5-min Rain = 0
KFL1 260933Z 33006KT 09/M00 A3027 RMK A01 T00931002  RH  052%=      5-min Rain = 0
KFL1 260934Z 32007KT 09/M00 A3027 RMK A01 T00901003  RH  052%=      5-min Rain = 0
KFL1 260935Z 32006KT 09/M01 A3027 RMK A01 T00891006  RH  051%=      5-min Rain = 0
KFL1 260936Z 32006KT 09/M00 A3027 RMK A01 T00891003  RH  052%=      5-min Rain = 0
KFL1 260937Z 33006KT 09/M00 A3027 RMK A01 T00901001  RH  053%=      5-min Rain = 0
KFL1 260938Z 33007KT 09/M00 A3027 RMK A01 T00881003  RH  053%=      5-min Rain = 0
KFL1 260939Z 33007KT 09/M00 A3026 RMK A01 T00881003  RH  053%=      5-min Rain = 0
KFL1 260940Z 33007KT 09/M00 A3026 RMK A01 T00901001  RH  053%=      5-min Rain = 0
KFL1 260941Z 34007KT 09/M00 A3026 RMK A01 T00881002  RH  053%=      5-min Rain = 0
KFL1 260942Z 33007KT 09/M00 A3026 RMK A01 T00881003  RH  053%=      5-min Rain = 0
KFL1 260943Z 33007KT 09/M01 A3026 RMK A01 T00901005  RH  051%=      5-min Rain = 0
KFL1 260944Z 33006KT 09/M01 A3026 RMK A01 T00911008  RH  050%=      5-min Rain = 0
KFL1 260945Z 33006KT 09/M01 A3027 RMK A01 T00921008  RH  049%=      5-min Rain = 0
KFL1 260946Z 34006KT 09/M00 A3026 RMK A01 T00931004  RH  051%=      5-min Rain = 0
KFL1 260947Z 34006KT 09/M01 A3026 RMK A01 T00921008  RH  050%=      5-min Rain = 0
KFL1 260948Z 34007KT 09/M00 A3026 RMK A01 T00941001  RH  051%=      5-min Rain = 0
KFL1 260949Z 34006KT 09/00 A3026 RMK A01 T00940000  RH  052%=      5-min Rain = 0
KFL1 260950Z 34006KT 09/M00 A3026 RMK A01 T00921003  RH  051%=      5-min Rain = 0
KFL1 260951Z 34005KT 09/M01 A3026 RMK A01 T00941006  RH  050%=      5-min Rain = 0
KFL1 260952Z 34005KT 09/M01 A3027 RMK A01 T00941009  RH  048%=      5-min Rain = 0
KFL1 260953Z 34005KT 10/M01 A3027 RMK A01 T00961010  RH  048%=      5-min Rain = 0
KFL1 260954Z 33005KT 10/M01 A3027 RMK A01 T00961012  RH  047%=      5-min Rain = 0
KFL1 260955Z 34005KT 10/M01 A3027 RMK A01 T00961007  RH  048%=      5-min Rain = 0
KFL1 260956Z 34005KT 10/M01 A3027 RMK A01 T00951006  RH  049%=      5-min Rain = 0
KFL1 260957Z 33005KT 09/00 A3027 RMK A01 T00940000  RH  052%=      5-min Rain = 0
KFL1 260958Z 33005KT 09/00 A3027 RMK A01 T00920003  RH  054%=      5-min Rain = 0
KFL1 260959Z 34004KT 09/M00 A3027 RMK A01 T00911003  RH  052%=      5-min Rain = 0
KFL1 261000Z 34006KT 09/M01 A3027 RMK A01 T00901010  RH  049%=      5-min Rain = 0
KFL1 261001Z 34005KT 09/M01 A3027 RMK A01 T00911005  RH  051%=      5-min Rain = 0
KFL1 261002Z 34005KT 09/M00 A3027 RMK A01 T00911001  RH  053%=      5-min Rain = 0
KFL1 261003Z 34004KT 09/00 A3027 RMK A01 T00900002  RH  054%=      5-min Rain = 0
KFL1 261004Z 33005KT 09/00 A3027 RMK A01 T00890004  RH  055%=      5-min Rain = 0
KFL1 261005Z 34004KT 09/00 A3027 RMK A01 T00880001  RH  054%=      5-min Rain = 0
KFL1 261006Z 34004KT 09/00 A3027 RMK A01 T00870001  RH  055%=      5-min Rain = 0
KFL1 261007Z 34005KT 09/M00 A3027 RMK A01 T00861002  RH  054%=      5-min Rain = 0
KFL1 261008Z 34005KT 09/M00 A3027 RMK A01 T00871002  RH  053%=      5-min Rain = 0
KFL1 261009Z 35004KT 09/M00 A3027 RMK A01 T00871003  RH  053%=      5-min Rain = 0
KFL1 261010Z 34005KT 09/M00 A3027 RMK A01 T00871004  RH  053%=      5-min Rain = 0
KFL1 261011Z 34004KT 09/M01 A3027 RMK A01 T00871007  RH  052%=      5-min Rain = 0
KFL1 261012Z 35004KT 09/M01 A3027 RMK A01 T00891009  RH  050%=      5-min Rain = 0
KFL1 261013Z 35004KT 09/M01 A3027 RMK A01 T00901005  RH  051%=      5-min Rain = 0
KFL1 261014Z 35005KT 09/M00 A3027 RMK A01 T00901004  RH  052%=      5-min Rain = 0
KFL1 261015Z 34005KT 09/00 A3027 RMK A01 T00900000  RH  053%=      5-min Rain = 0
KFL1 261016Z 34005KT 09/00 A3027 RMK A01 T00880003  RH  055%=      5-min Rain = 0
KFL1 261017Z 34005KT 09/01 A3027 RMK A01 T00860006  RH  057%=      5-min Rain = 0
KFL1 261018Z 34005KT 08/01 A3027 RMK A01 T00830006  RH  058%=      5-min Rain = 0
KFL1 261019Z 34006KT 08/01 A3027 RMK A01 T00790005  RH  059%=      5-min Rain = 0
KFL1 261020Z 33006KT 08/00 A3027 RMK A01 T00770002  RH  059%=      5-min Rain = 0
KFL1 261021Z 34006KT 08/M00 A3027 RMK A01 T00761001  RH  058%=      5-min Rain = 0
KFL1 261022Z 34006KT 08/00 A3027 RMK A01 T00770001  RH  059%=      5-min Rain = 0
KFL1 261023Z 34006KT 08/00 A3027 RMK A01 T00750000  RH  059%=      5-min Rain = 0
KFL1 261024Z 34007KT 08/00 A3027 RMK A01 T00750001  RH  059%=      5-min Rain = 0
KFL1 261025Z 33007KT 08/00 A3027 RMK A01 T00750001  RH  060%=      5-min Rain = 0
KFL1 261026Z 34006KT 07/00 A3027 RMK A01 T00730000  RH  060%=      5-min Rain = 0
KFL1 261027Z 34007KT 07/00 A3027 RMK A01 T00720001  RH  060%=      5-min Rain = 0
KFL1 261028Z 33008KT 07/00 A3027 RMK A01 T00720001  RH  061%=      5-min Rain = 0
KFL1 261029Z 33007KT 07/M01 A3027 RMK A01 T00721006  RH  057%=      5-min Rain = 0
KFL1 261030Z 34007KT 08/M01 A3027 RMK A01 T00781006  RH  055%=      5-min Rain = 0
KFL1 261031Z 34008KT 08/M00 A3027 RMK A01 T00801002  RH  056%=      5-min Rain = 0
KFL1 261032Z 34008KT 08/M00 A3027 RMK A01 T00771002  RH  057%=      5-min Rain = 0
KFL1 261033Z 34008KT 08/M00 A3027 RMK A01 T00771002  RH  058%=      5-min Rain = 0
KFL1 261034Z 34008KT 08/M00 A3027 RMK A01 T00761003  RH  057%=      5-min Rain = 0
KFL1 261035Z 34007KT 08/M00 A3027 RMK A01 T00771004  RH  057%=      5-min Rain = 0
KFL1 261036Z 34007KT 08/M01 A3027 RMK A01 T00771005  RH  056%=      5-min Rain = 0
KFL1 261037Z 34007KT 08/M00 A3027 RMK A01 T00781004  RH  056%=      5-min Rain = 0
KFL1 261038Z 34007KT 08/M01 A3027 RMK A01 T00781005  RH  056%=      5-min Rain = 0
KFL1 261039Z 34007KT 08/M00 A3027 RMK A01 T00791003  RH  056%=      5-min Rain = 0
KFL1 261040Z 34007KT 08/M01 A3027 RMK A01 T00781005  RH  056%=      5-min Rain = 0
KFL1 261041Z 34007KT 08/M01 A3027 RMK A01 T00781005  RH  055%=      5-min Rain = 0
KFL1 261042Z 34007KT 08/M01 A3027 RMK A01 T00781006  RH  056%=      5-min Rain = 0
KFL1 261043Z 34007KT 08/M00 A3027 RMK A01 T00781004  RH  056%=      5-min Rain = 0
KFL1 261044Z 34007KT 08/M00 A3027 RMK A01 T00801001  RH  057%=      5-min Rain = 0
KFL1 261045Z 34007KT 08/M00 A3027 RMK A01 T00791001  RH  057%=      5-min Rain = 0
KFL1 261046Z 34006KT 08/M00 A3027 RMK A01 T00791001  RH  057%=      5-min Rain = 0
KFL1 261047Z 34007KT 08/M00 A3027 RMK A01 T00791002  RH  057%=      5-min Rain = 0
KFL1 261048Z 34006KT 08/00 A3027 RMK A01 T008000-0  RH  057%=      5-min Rain = 0
KFL1 261049Z 34007KT 08/M00 A3027 RMK A01 T00791002  RH  057%=      5-min Rain = 0
KFL1 261050Z 34006KT 08/M00 A3027 RMK A01 T00801001  RH  057%=      5-min Rain = 0
KFL1 261051Z 34006KT 08/M00 A3027 RMK A01 T00791002  RH  056%=      5-min Rain = 0
KFL1 261052Z 34006KT 08/M00 A3027 RMK A01 T00801002  RH  056%=      5-min Rain = 0
KFL1 261053Z 34006KT 08/00 A3027 RMK A01 T00820000  RH  056%=      5-min Rain = 0
KFL1 261054Z 34005KT 08/M00 A3027 RMK A01 T00811001  RH  056%=      5-min Rain = 0
KFL1 261055Z 35005KT 08/M00 A3027 RMK A01 T00811004  RH  055%=      5-min Rain = 0
KFL1 261056Z 35005KT 08/M00 A3027 RMK A01 T00841002  RH  055%=      5-min Rain = 0
KFL1 261057Z 35005KT 09/M00 A3027 RMK A01 T00851002  RH  054%=      5-min Rain = 0
KFL1 261058Z 35005KT 09/M00 A3027 RMK A01 T00861003  RH  054%=      5-min Rain = 0
KFL1 261059Z 35005KT 09/M00 A3027 RMK A01 T00871003  RH  053%=      5-min Rain = 0
KFL1 261100Z 35005KT 09/M00 A3027 RMK A01 T00891002  RH  053%=      5-min Rain = 0
KFL1 261101Z 35005KT 09/M00 A3027 RMK A01 T00891002  RH  053%=      5-min Rain = 0
KFL1 261102Z 35006KT 09/M00 A3027 RMK A01 T00881001  RH  053%=      5-min Rain = 0
KFL1 261103Z 34005KT 09/M00 A3027 RMK A01 T00881001  RH  053%=      5-min Rain = 0
KFL1 261104Z 34005KT 09/M00 A3027 RMK A01 T00881001  RH  054%=      5-min Rain = 0
KFL1 261105Z 34005KT 09/00 A3027 RMK A01 T00880002  RH  055%=      5-min Rain = 0
KFL1 261106Z 33005KT 09/00 A3027 RMK A01 T00860002  RH  056%=      5-min Rain = 0
KFL1 261107Z 34005KT 08/00 A3027 RMK A01 T00820004  RH  058%=      5-min Rain = 0
KFL1 261108Z 33006KT 08/01 A3027 RMK A01 T00790005  RH  059%=      5-min Rain = 0
KFL1 261109Z 33005KT 08/01 A3027 RMK A01 T00770005  RH  060%=      5-min Rain = 0
KFL1 261110Z 34005KT 08/00 A3027 RMK A01 T00770002  RH  059%=      5-min Rain = 0
KFL1 261111Z 34005KT 08/M00 A3027 RMK A01 T00791002  RH  057%=      5-min Rain = 0
KFL1 261112Z 34005KT 08/M00 A3027 RMK A01 T00831003  RH  055%=      5-min Rain = 0
KFL1 261113Z 34005KT 09/M00 A3027 RMK A01 T00851003  RH  054%=      5-min Rain = 0
KFL1 261114Z 33005KT 09/M00 A3027 RMK A01 T00871002  RH  053%=      5-min Rain = 0
KFL1 261115Z 33005KT 09/M00 A3027 RMK A01 T00871002  RH  053%=      5-min Rain = 0
KFL1 261116Z 34005KT 09/M00 A3027 RMK A01 T00871001  RH  054%=      5-min Rain = 0
KFL1 261117Z 34005KT 09/M00 A3027 RMK A01 T00871001  RH  054%=      5-min Rain = 0
KFL1 261118Z 34004KT 09/M00 A3027 RMK A01 T00861003  RH  054%=      5-min Rain = 0
KFL1 261119Z 35005KT 09/M01 A3027 RMK A01 T00851006  RH  053%=      5-min Rain = 0
KFL1 261120Z 00005KT 09/M01 A3027 RMK A01 T00871007  RH  052%=      5-min Rain = 0
KFL1 261121Z 35005KT 09/M01 A3027 RMK A01 T00881006  RH  052%=      5-min Rain = 0
KFL1 261122Z 35005KT 09/M01 A3027 RMK A01 T00881006  RH  052%=      5-min Rain = 0
KFL1 261123Z 34005KT 09/M01 A3027 RMK A01 T00871005  RH  052%=      5-min Rain = 0
KFL1 261124Z 35005KT 09/M00 A3027 RMK A01 T00871002  RH  053%=      5-min Rain = 0
KFL1 261125Z 34005KT 09/00 A3027 RMK A01 T00860001  RH  055%=      5-min Rain = 0
KFL1 261126Z 35005KT 08/00 A3028 RMK A01 T00840003  RH  057%=      5-min Rain = 0
KFL1 261127Z 35005KT 08/00 A3028 RMK A01 T00810003  RH  058%=      5-min Rain = 0
KFL1 261128Z 01004KT 08/00 A3028 RMK A01 T00800002  RH  058%=      5-min Rain = 0
KFL1 261129Z 01005KT 08/00 A3028 RMK A01 T00790002  RH  058%=      5-min Rain = 0
KFL1 261130Z 02005KT 08/00 A3028 RMK A01 T007800-0  RH  058%=      5-min Rain = 0
KFL1 261131Z 00005KT 08/M00 A3028 RMK A01 T00781003  RH  057%=      5-min Rain = 0
KFL1 261132Z 00005KT 08/M01 A3028 RMK A01 T00791005  RH  056%=      5-min Rain = 0
KFL1 261133Z 36005KT 08/M01 A3028 RMK A01 T00791007  RH  055%=      5-min Rain = 0
KFL1 261134Z 00005KT 08/M00 A3028 RMK A01 T00791001  RH  057%=      5-min Rain = 0
KFL1 261135Z 01005KT 08/M00 A3028 RMK A01 T00791001  RH  057%=      5-min Rain = 0
KFL1 261136Z 02005KT 08/M01 A3028 RMK A01 T00771005  RH  056%=      5-min Rain = 0
KFL1 261137Z 03006KT 08/M01 A3028 RMK A01 T00791013  RH  052%=      5-min Rain = 0
KFL1 261138Z 04006KT 08/M02 A3028 RMK A01 T00841019  RH  048%=      5-min Rain = 0
KFL1 261139Z 03005KT 09/M02 A3028 RMK A01 T00871020  RH  047%=      5-min Rain = 0
KFL1 261140Z 04005KT 09/M02 A3028 RMK A01 T00881019  RH  047%=      5-min Rain = 0
KFL1 261141Z 04005KT 09/M02 A3028 RMK A01 T00891021  RH  046%=      5-min Rain = 0
KFL1 261142Z 03005KT 09/M02 A3028 RMK A01 T00911020  RH  046%=      5-min Rain = 0
KFL1 261143Z 03005KT 09/M01 A3028 RMK A01 T00931013  RH  048%=      5-min Rain = 0
KFL1 261144Z 03005KT 09/M01 A3028 RMK A01 T00901006  RH  051%=      5-min Rain = 0
KFL1 261145Z 03005KT 09/M01 A3028 RMK A01 T00871005  RH  052%=      5-min Rain = 0
KFL1 261146Z 03005KT 08/M00 A3029 RMK A01 T00831004  RH  054%=      5-min Rain = 0
KFL1 261147Z 03005KT 08/M00 A3029 RMK A01 T00811004  RH  055%=      5-min Rain = 0
KFL1 261148Z 03005KT 08/M00 A3029 RMK A01 T00791004  RH  056%=      5-min Rain = 0
KFL1 261149Z 03005KT 08/M01 A3029 RMK A01 T00791006  RH  055%=      5-min Rain = 0
KFL1 261150Z 04005KT 08/M01 A3029 RMK A01 T00781014  RH  052%=      5-min Rain = 0
KFL1 261151Z 04005KT 08/M01 A3029 RMK A01 T00821014  RH  051%=      5-min Rain = 0
KFL1 261152Z 04006KT 08/M02 A3029 RMK A01 T00831017  RH  049%=      5-min Rain = 0
KFL1 261153Z 04006KT 09/M02 A3029 RMK A01 T00871018  RH  048%=      5-min Rain = 0
KFL1 261154Z 04007KT 09/M02 A3029 RMK A01 T00891017  RH  047%=      5-min Rain = 0
KFL1 261155Z 04006KT 09/M02 A3029 RMK A01 T00911016  RH  047%=      5-min Rain = 0
KFL1 261156Z 04007KT 09/M02 A3029 RMK A01 T00921016  RH  047%=      5-min Rain = 0
KFL1 261157Z 04007KT 09/M02 A3029 RMK A01 T00931015  RH  047%=      5-min Rain = 0
KFL1 261158Z 04006KT 09/M02 A3029 RMK A01 T00941015  RH  046%=      5-min Rain = 0
KFL1 261159Z 04006KT 09/M02 A3029 RMK A01 T00941017  RH  046%=      5-min Rain = 0
KFL1 261200Z 03007KT 10/M02 A3029 RMK A01 T00951017  RH  045%=      5-min Rain = 0
KFL1 261201Z 03006KT 10/M02 A3029 RMK A01 T00961017  RH  045%=      5-min Rain = 0
KFL1 261202Z 03006KT 10/M02 A3029 RMK A01 T00971017  RH  045%=      5-min Rain = 0
KFL1 261203Z 03006KT 10/M02 A3029 RMK A01 T00981018  RH  044%=      5-min Rain = 0
KFL1 261204Z 03006KT 10/M02 A3029 RMK A01 T01001016  RH  044%=      5-min Rain = 0
KFL1 261205Z 02006KT 10/M02 A3029 RMK A01 T00991016  RH  045%=      5-min Rain = 0
KFL1 261206Z 02006KT 10/M02 A3029 RMK A01 T00991015  RH  045%=      5-min Rain = 0
KFL1 261207Z 02005KT 10/M01 A3029 RMK A01 T00991014  RH  045%=      5-min Rain = 0
KFL1 261208Z 02005KT 10/M01 A3029 RMK A01 T00981012  RH  046%=      5-min Rain = 0
KFL1 261209Z 02006KT 10/M00 A3029 RMK A01 T00971003  RH  050%=      5-min Rain = 0
KFL1 261210Z 02006KT 09/M00 A3029 RMK A01 T00931004  RH  051%=      5-min Rain = 0
KFL1 261211Z 02006KT 09/00 A3029 RMK A01 T00910000  RH  053%=      5-min Rain = 0
KFL1 261212Z 02005KT 09/M00 A3029 RMK A01 T00881004  RH  053%=      5-min Rain = 0
KFL1 261213Z 02005KT 09/M00 A3029 RMK A01 T00871001  RH  054%=      5-min Rain = 0
KFL1 261214Z 03005KT 09/M00 A3029 RMK A01 T00851002  RH  054%=      5-min Rain = 0
KFL1 261215Z 03005KT 09/M00 A3029 RMK A01 T00851001  RH  055%=      5-min Rain = 0
KFL1 261216Z 03005KT 09/M00 A303 RMK A01 T00851002  RH  054%=      5-min Rain = 0
KFL1 261217Z 03005KT 09/M01 A303 RMK A01 T00851006  RH  053%=      5-min Rain = 0
KFL1 261218Z 03005KT 09/M01 A303 RMK A01 T00851010  RH  051%=      5-min Rain = 0
KFL1 261219Z 03005KT 09/M01 A303 RMK A01 T00861013  RH  050%=      5-min Rain = 0
KFL1 261220Z 04005KT 09/M02 A303 RMK A01 T00891015  RH  048%=      5-min Rain = 0
KFL1 261221Z 04005KT 09/M02 A303 RMK A01 T00911016  RH  047%=      5-min Rain = 0
KFL1 261222Z 03005KT 09/M02 A303 RMK A01 T00931015  RH  047%=      5-min Rain = 0
KFL1 261223Z 03005KT 09/M01 A303 RMK A01 T00931014  RH  047%=      5-min Rain = 0
KFL1 261224Z 03005KT 10/M01 A303 RMK A01 T00951014  RH  047%=      5-min Rain = 0
KFL1 261225Z 04005KT 10/M01 A303 RMK A01 T00951014  RH  046%=      5-min Rain = 0
KFL1 261226Z 04006KT 10/M02 A303 RMK A01 T00961015  RH  046%=      5-min Rain = 0
KFL1 261227Z 04005KT 10/M02 A303 RMK A01 T00971015  RH  045%=      5-min Rain = 0
KFL1 261228Z 04005KT 10/M02 A303 RMK A01 T00991015  RH  045%=      5-min Rain = 0
KFL1 261229Z 04005KT 10/M01 A303 RMK A01 T01001014  RH  045%=      5-min Rain = 0
KFL1 261230Z 04005KT 10/M01 A303 RMK A01 T01001013  RH  045%=      5-min Rain = 0
KFL1 261231Z 04005KT 10/M01 A303 RMK A01 T01001012  RH  045%=      5-min Rain = 0
KFL1 261232Z 04005KT 10/M01 A303 RMK A01 T01001012  RH  046%=      5-min Rain = 0
KFL1 261233Z 04006KT 10/M01 A303 RMK A01 T01001011  RH  046%=      5-min Rain = 0
KFL1 261234Z 04006KT 10/M01 A303 RMK A01 T01001011  RH  046%=      5-min Rain = 0
KFL1 261235Z 04006KT 10/M01 A303 RMK A01 T00991013  RH  046%=      5-min Rain = 0
KFL1 261236Z 04006KT 10/M01 A303 RMK A01 T01001011  RH  046%=      5-min Rain = 0
KFL1 261237Z 04006KT 10/M01 A303 RMK A01 T01011011  RH  046%=      5-min Rain = 0
KFL1 261238Z 04006KT 10/M01 A303 RMK A01 T01021011  RH  045%=      5-min Rain = 0
KFL1 261239Z 04005KT 10/M01 A303 RMK A01 T01021010  RH  046%=      5-min Rain = 0
KFL1 261240Z 04005KT 10/M01 A303 RMK A01 T01041010  RH  045%=      5-min Rain = 0
KFL1 261241Z 04005KT 10/M01 A303 RMK A01 T01031007  RH  046%=      5-min Rain = 0
KFL1 261242Z 05005KT 10/M00 A303 RMK A01 T01021003  RH  048%=      5-min Rain = 0
KFL1 261243Z 05006KT 10/M00 A303 RMK A01 T01001001  RH  050%=      5-min Rain = 0
KFL1 261244Z 05007KT 10/00 A303 RMK A01 T00970002  RH  052%=      5-min Rain = 0
KFL1 261245Z 05008KT 10/01 A303 RMK A01 T00950005  RH  053%=      5-min Rain = 0
KFL1 261246Z 05008KT 09/00 A303 RMK A01 T00940004  RH  053%=      5-min Rain = 0
KFL1 261247Z 05009KT 09/00 A303 RMK A01 T00930002  RH  053%=      5-min Rain = 0
KFL1 261248Z 05009KT 09/M00 A303 RMK A01 T00931001  RH  052%=      5-min Rain = 0
KFL1 261249Z 05010KT 09/M00 A303 RMK A01 T00941003  RH  051%=      5-min Rain = 0
KFL1 261250Z 05010KT 10/M00 A303 RMK A01 T00961002  RH  050%=      5-min Rain = 0
KFL1 261251Z 05009KT 10/M00 A303 RMK A01 T00971001  RH  050%=      5-min Rain = 0
KFL1 261252Z 05009KT 10/M00 A303 RMK A01 T00961002  RH  050%=      5-min Rain = 0
KFL1 261253Z 04009KT 10/M00 A303 RMK A01 T00961003  RH  050%=      5-min Rain = 0
KFL1 261254Z 05009KT 10/M00 A303 RMK A01 T00971002  RH  050%=      5-min Rain = 0
KFL1 261255Z 04008KT 10/M00 A303 RMK A01 T00971002  RH  050%=      5-min Rain = 0
KFL1 261256Z 04008KT 10/M00 A3031 RMK A01 T00981004  RH  049%=      5-min Rain = 0
KFL1 261257Z 04008KT 10/M00 A3031 RMK A01 T00991004  RH  049%=      5-min Rain = 0
KFL1 261258Z 05009KT 10/M00 A3031 RMK A01 T01011003  RH  048%=      5-min Rain = 0
KFL1 261259Z 05008KT 10/M00 A3031 RMK A01 T00991004  RH  048%=      5-min Rain = 0
KFL1 261300Z 04009KT 10/M00 A3031 RMK A01 T01011004  RH  048%=      5-min Rain = 0
KFL1 261301Z 05008KT 10/M00 A3031 RMK A01 T01011003  RH  048%=      5-min Rain = 0
KFL1 261302Z 05007KT 10/M00 A3031 RMK A01 T01011003  RH  048%=      5-min Rain = 0
KFL1 261303Z 04007KT 10/M00 A3031 RMK A01 T01021001  RH  049%=      5-min Rain = 0
KFL1 261304Z 03007KT 10/00 A3031 RMK A01 T010100-0  RH  049%=      5-min Rain = 0
KFL1 261305Z 03006KT 10/00 A3031 RMK A01 T01010003  RH  051%=      5-min Rain = 0
KFL1 261306Z 04006KT 10/00 A3031 RMK A01 T00990002  RH  051%=      5-min Rain = 0
KFL1 261307Z 05007KT 10/00 A3031 RMK A01 T01000002  RH  050%=      5-min Rain = 0
KFL1 261308Z 05008KT 10/00 A3031 RMK A01 T00990001  RH  051%=      5-min Rain = 0
KFL1 261309Z 04008KT 10/00 A3032 RMK A01 T00980000  RH  050%=      5-min Rain = 0
KFL1 261310Z 04007KT 10/00 A3032 RMK A01 T00990001  RH  050%=      5-min Rain = 0
KFL1 261311Z 04007KT 10/M00 A3032 RMK A01 T01001002  RH  049%=      5-min Rain = 0
KFL1 261312Z 03005KT 10/M00 A3032 RMK A01 T01021002  RH  049%=      5-min Rain = 0
KFL1 261313Z 04005KT 10/M00 A3032 RMK A01 T01021002  RH  048%=      5-min Rain = 0
KFL1 261314Z 04005KT 10/00 A3032 RMK A01 T01040000  RH  049%=      5-min Rain = 0
KFL1 261315Z 04006KT 10/M00 A3032 RMK A01 T01031002  RH  048%=      5-min Rain = 0
KFL1 261316Z 05007KT 10/00 A3032 RMK A01 T010400-0  RH  048%=      5-min Rain = 0
KFL1 261317Z 04007KT 10/00 A3032 RMK A01 T010300-0  RH  049%=      5-min Rain = 0
KFL1 261318Z 04006KT 10/M00 A3032 RMK A01 T01041001  RH  048%=      5-min Rain = 0
KFL1 261319Z 04005KT 11/00 A3032 RMK A01 T01050001  RH  048%=      5-min Rain = 0
KFL1 261320Z 04005KT 11/00 A3032 RMK A01 T01080001  RH  048%=      5-min Rain = 0
KFL1 261321Z 04005KT 11/00 A3032 RMK A01 T01080000  RH  047%=      5-min Rain = 0
KFL1 261322Z 04005KT 11/00 A3032 RMK A01 T01110001  RH  046%=      5-min Rain = 0
KFL1 261323Z 03005KT 11/00 A3032 RMK A01 T01140003  RH  046%=      5-min Rain = 0
KFL1 261324Z 03005KT 11/00 A3032 RMK A01 T01140003  RH  046%=      5-min Rain = 0
KFL1 261325Z 04005KT 12/00 A3032 RMK A01 T01160004  RH  046%=      5-min Rain = 0
KFL1 261326Z 04005KT 12/01 A3032 RMK A01 T01190006  RH  046%=      5-min Rain = 0
KFL1 261327Z 04005KT 12/00 A3032 RMK A01 T01230004  RH  044%=      5-min Rain = 0
KFL1 261328Z 04004KT 13/00 A3032 RMK A01 T01260001  RH  042%=      5-min Rain = 0
KFL1 261329Z 05003KT 13/00 A3032 RMK A01 T01300003  RH  042%=      5-min Rain = 0
KFL1 261330Z 05003KT 14/01 A3032 RMK A01 T01350011  RH  043%=      5-min Rain = 0
KFL1 261331Z 05003KT 14/01 A3032 RMK A01 T01390012  RH  042%=      5-min Rain = 0
KFL1 261332Z 06004KT 14/01 A3032 RMK A01 T01430010  RH  040%=      5-min Rain = 0
KFL1 261333Z 06004KT 15/01 A3032 RMK A01 T01460014  RH  041%=      5-min Rain = 0
KFL1 261334Z 05004KT 15/02 A3032 RMK A01 T01470015  RH  041%=      5-min Rain = 0
KFL1 261335Z 06005KT 15/02 A3032 RMK A01 T01480017  RH  041%=      5-min Rain = 0
KFL1 261336Z 05004KT 15/02 A3032 RMK A01 T01510021  RH  041%=      5-min Rain = 0
KFL1 261337Z 06003KT 15/02 A3032 RMK A01 T01520020  RH  041%=      5-min Rain = 0
KFL1 261338Z 06002KT 15/03 A3032 RMK A01 T01520029  RH  044%=      5-min Rain = 0
KFL1 261339Z 05002KT 15/03 A3032 RMK A01 T01520027  RH  043%=      5-min Rain = 0
KFL1 261340Z 05002KT 15/03 A3032 RMK A01 T01530032  RH  044%=      5-min Rain = 0
KFL1 261341Z 05003KT 15/04 A3032 RMK A01 T01540036  RH  045%=      5-min Rain = 0
KFL1 261342Z 05003KT 15/04 A3032 RMK A01 T01510035  RH  046%=      5-min Rain = 0
KFL1 261343Z 05003KT 15/04 A3032 RMK A01 T01500039  RH  047%=      5-min Rain = 0
KFL1 261344Z 05004KT 15/04 A3032 RMK A01 T01490040  RH  048%=      5-min Rain = 0
KFL1 261345Z 06004KT 15/04 A3032 RMK A01 T01490042  RH  048%=      5-min Rain = 0
KFL1 261346Z 06004KT 15/04 A3032 RMK A01 T01480037  RH  048%=      5-min Rain = 0
KFL1 261347Z 06004KT 15/04 A3032 RMK A01 T01490038  RH  047%=      5-min Rain = 0
KFL1 261348Z 07004KT 15/04 A3032 RMK A01 T01480036  RH  047%=      5-min Rain = 0
KFL1 261349Z 06004KT 15/03 A3032 RMK A01 T01470034  RH  047%=      5-min Rain = 0
KFL1 261350Z 06004KT 15/03 A3032 RMK A01 T01460032  RH  046%=      5-min Rain = 0
KFL1 261351Z 06003KT 15/03 A3032 RMK A01 T01470032  RH  046%=      5-min Rain = 0
KFL1 261352Z 07004KT 15/04 A3032 RMK A01 T01480036  RH  047%=      5-min Rain = 0
KFL1 261353Z 07004KT 15/04 A3032 RMK A01 T01500037  RH  047%=      5-min Rain = 0
KFL1 261354Z 06004KT 15/03 A3032 RMK A01 T01530032  RH  044%=      5-min Rain = 0
KFL1 261355Z 07004KT 16/03 A3032 RMK A01 T01560032  RH  044%=      5-min Rain = 0
KFL1 261356Z 07004KT 16/04 A3032 RMK A01 T01580037  RH  044%=      5-min Rain = 0
KFL1 261357Z 08004KT 16/03 A3033 RMK A01 T01580032  RH  043%=      5-min Rain = 0
KFL1 261358Z 08004KT 16/03 A3033 RMK A01 T01600031  RH  042%=      5-min Rain = 0
KFL1 261359Z 07004KT 16/03 A3033 RMK A01 T01570028  RH  042%=      5-min Rain = 0
KFL1 261400Z 07003KT 16/03 A3033 RMK A01 T01580030  RH  042%=      5-min Rain = 0
KFL1 261401Z 07003KT 16/03 A3033 RMK A01 T01560034  RH  044%=      5-min Rain = 0
KFL1 261402Z 08003KT 15/03 A3033 RMK A01 T01540032  RH  044%=      5-min Rain = 0
KFL1 261403Z 08004KT 16/04 A3033 RMK A01 T01550035  RH  045%=      5-min Rain = 0
KFL1 261404Z 07004KT 15/03 A3033 RMK A01 T01540033  RH  044%=      5-min Rain = 0
KFL1 261405Z 07004KT 15/03 A3033 RMK A01 T01530029  RH  043%=      5-min Rain = 0
KFL1 261406Z 07004KT 15/03 A3033 RMK A01 T01540034  RH  045%=      5-min Rain = 0
KFL1 261407Z 07004KT 16/03 A3033 RMK A01 T01550034  RH  044%=      5-min Rain = 0
KFL1 261408Z 06003KT 16/04 A3033 RMK A01 T01590039  RH  045%=      5-min Rain = 0
KFL1 261409Z 06004KT 16/04 A3033 RMK A01 T01620038  RH  044%=      5-min Rain = 0
KFL1 261410Z 06003KT 16/03 A3033 RMK A01 T01630029  RH  041%=      5-min Rain = 0
KFL1 261411Z 05003KT 17/02 A3033 RMK A01 T01650016  RH  036%=      5-min Rain = 0
KFL1 261412Z 05003KT 17/02 A3033 RMK A01 T01680021  RH  037%=      5-min Rain = 0
KFL1 261413Z 05003KT 17/02 A3033 RMK A01 T01680017  RH  036%=      5-min Rain = 0
KFL1 261414Z 05003KT 17/02 A3033 RMK A01 T01710019  RH  036%=      5-min Rain = 0
KFL1 261415Z 04003KT 18/02 A3033 RMK A01 T01750022  RH  036%=      5-min Rain = 0
KFL1 261416Z 04004KT 18/02 A3033 RMK A01 T01780021  RH  035%=      5-min Rain = 0
KFL1 261417Z 05004KT 18/02 A3033 RMK A01 T01810023  RH  035%=      5-min Rain = 0
KFL1 261418Z 05002KT 18/02 A3033 RMK A01 T01810015  RH  033%=      5-min Rain = 0
KFL1 261419Z 05003KT 18/02 A3033 RMK A01 T01810018  RH  033%=      5-min Rain = 0
KFL1 261420Z 05004KT 18/02 A3033 RMK A01 T01800016  RH  033%=      5-min Rain = 0
KFL1 261421Z 05003KT 18/01 A3033 RMK A01 T01780014  RH  033%=      5-min Rain = 0
KFL1 261422Z 05003KT 18/01 A3033 RMK A01 T01750013  RH  034%=      5-min Rain = 0
KFL1 261423Z 05002KT 17/02 A3033 RMK A01 T01740021  RH  036%=      5-min Rain = 0
KFL1 261424Z 05003KT 17/02 A3033 RMK A01 T01720020  RH  036%=      5-min Rain = 0
KFL1 261425Z 06003KT 17/02 A3033 RMK A01 T01690024  RH  038%=      5-min Rain = 0
KFL1 261426Z 05002KT 17/02 A3033 RMK A01 T01670019  RH  037%=      5-min Rain = 0
KFL1 261427Z 05003KT 17/02 A3033 RMK A01 T01670018  RH  037%=      5-min Rain = 0
KFL1 261428Z 04003KT 17/02 A3034 RMK A01 T01650016  RH  037%=      5-min Rain = 0
KFL1 261429Z 04003KT 16/01 A3034 RMK A01 T01630013  RH  036%=      5-min Rain = 0
KFL1 261430Z 04003KT 16/02 A3034 RMK A01 T01630015  RH  037%=      5-min Rain = 0
KFL1 261431Z 03003KT 16/02 A3034 RMK A01 T01630022  RH  039%=      5-min Rain = 0
KFL1 261432Z 02004KT 16/02 A3034 RMK A01 T01620020  RH  038%=      5-min Rain = 0
KFL1 261433Z 03004KT 16/03 A3034 RMK A01 T01630033  RH  042%=      5-min Rain = 0
KFL1 261434Z 03004KT 16/03 A3034 RMK A01 T01640029  RH  040%=      5-min Rain = 0
KFL1 261435Z 04003KT 17/03 A3034 RMK A01 T01660025  RH  039%=      5-min Rain = 0
KFL1 261436Z 05003KT 17/03 A3034 RMK A01 T01710031  RH  039%=      5-min Rain = 0
KFL1 261437Z 05004KT 17/03 A3034 RMK A01 T01740029  RH  038%=      5-min Rain = 0
KFL1 261438Z 06003KT 18/03 A3034 RMK A01 T01790031  RH  037%=      5-min Rain = 0
KFL1 261439Z 05003KT 18/03 A3034 RMK A01 T01840030  RH  036%=      5-min Rain = 0
KFL1 261440Z 06003KT 19/03 A3034 RMK A01 T01850030  RH  036%=      5-min Rain = 0
KFL1 261441Z 06003KT 19/03 A3034 RMK A01 T01850028  RH  035%=      5-min Rain = 0
KFL1 261442Z 07003KT 18/02 A3034 RMK A01 T01820024  RH  035%=      5-min Rain = 0
KFL1 261443Z 05003KT 18/02 A3034 RMK A01 T01790016  RH  033%=      5-min Rain = 0
KFL1 261444Z 06005KT 18/02 A3034 RMK A01 T01770021  RH  035%=      5-min Rain = 0
KFL1 261445Z 06004KT 18/02 A3034 RMK A01 T01760022  RH  036%=      5-min Rain = 0
KFL1 261446Z 06005KT 18/02 A3034 RMK A01 T01750024  RH  036%=      5-min Rain = 0
KFL1 261447Z 06004KT 18/03 A3034 RMK A01 T01750032  RH  038%=      5-min Rain = 0
KFL1 261448Z 06003KT 17/04 A3034 RMK A01 T01740035  RH  040%=      5-min Rain = 0
KFL1 261449Z 06003KT 18/04 A3034 RMK A01 T01760037  RH  040%=      5-min Rain = 0
KFL1 261450Z 06003KT 18/03 A3034 RMK A01 T01750031  RH  038%=      5-min Rain = 0
KFL1 261451Z 06003KT 17/03 A3034 RMK A01 T01740025  RH  037%=      5-min Rain = 0
KFL1 261452Z 07002KT 17/03 A3034 RMK A01 T01740026  RH  037%=      5-min Rain = 0
KFL1 261453Z 05002KT 18/03 A3034 RMK A01 T01750031  RH  038%=      5-min Rain = 0
KFL1 261454Z 06003KT 17/04 A3034 RMK A01 T01740035  RH  039%=      5-min Rain = 0
KFL1 261455Z 05001KT 18/04 A3034 RMK A01 T01770035  RH  039%=      5-min Rain = 0
KFL1 261456Z 06002KT 18/04 A3034 RMK A01 T01800036  RH  039%=      5-min Rain = 0
KFL1 261457Z 06003KT 18/04 A3034 RMK A01 T01810035  RH  038%=      5-min Rain = 0
KFL1 261458Z 06002KT 18/03 A3034 RMK A01 T01820029  RH  036%=      5-min Rain = 0
KFL1 261459Z 04002KT 18/03 A3034 RMK A01 T01820033  RH  037%=      5-min Rain = 0
KFL1 261500Z 06002KT 18/03 A3034 RMK A01 T01830028  RH  036%=      5-min Rain = 0
KFL1 261501Z 04002KT 18/03 A3034 RMK A01 T01800025  RH  035%=      5-min Rain = 0
KFL1 261502Z 04003KT 18/03 A3034 RMK A01 T01790025  RH  036%=      5-min Rain = 0
KFL1 261503Z 06002KT 18/04 A3034 RMK A01 T01810036  RH  038%=      5-min Rain = 0
KFL1 261504Z 06002KT 18/03 A3034 RMK A01 T01780032  RH  038%=      5-min Rain = 0
KFL1 261505Z 08002KT 18/04 A3034 RMK A01 T01800035  RH  038%=      5-min Rain = 0
KFL1 261506Z 06002KT 18/03 A3034 RMK A01 T01800028  RH  036%=      5-min Rain = 0
KFL1 261507Z 07003KT 18/03 A3034 RMK A01 T01810025  RH  035%=      5-min Rain = 0
KFL1 261508Z 08003KT 18/02 A3034 RMK A01 T01830020  RH  034%=      5-min Rain = 0
KFL1 261509Z 09003KT 19/03 A3034 RMK A01 T01870034  RH  036%=      5-min Rain = 0
KFL1 261510Z 10004KT 19/02 A3034 RMK A01 T01880018  RH  032%=      5-min Rain = 0
KFL1 261511Z 07003KT 19/01 A3034 RMK A01 T01900010  RH  030%=      5-min Rain = 0
KFL1 261512Z 08003KT 19/01 A3034 RMK A01 T01910007  RH  029%=      5-min Rain = 0
KFL1 261513Z 08003KT 19/02 A3034 RMK A01 T01920017  RH  031%=      5-min Rain = 0
KFL1 261514Z 07003KT 19/03 A3034 RMK A01 T01930028  RH  033%=      5-min Rain = 0
KFL1 261515Z 07002KT 19/04 A3034 RMK A01 T01920035  RH  035%=      5-min Rain = 0
KFL1 261516Z 09004KT 19/02 A3034 RMK A01 T01920019  RH  032%=      5-min Rain = 0
KFL1 261517Z 09004KT 19/01 A3034 RMK A01 T01900010  RH  030%=      5-min Rain = 0
KFL1 261518Z 08004KT 19/01 A3034 RMK A01 T01880011  RH  030%=      5-min Rain = 0
KFL1 261519Z 08003KT 19/02 A3034 RMK A01 T01860017  RH  032%=      5-min Rain = 0
KFL1 261520Z 07001KT 19/03 A3034 RMK A01 T01860026  RH  034%=      5-min Rain = 0
KFL1 261521Z 08001KT 18/01 A3034 RMK A01 T01840013  RH  032%=      5-min Rain = 0
KFL1 261522Z 08002KT 18/02 A3034 RMK A01 T01840023  RH  034%=      5-min Rain = 0
KFL1 261523Z 06002KT 19/03 A3034 RMK A01 T01860028  RH  035%=      5-min Rain = 0
KFL1 261524Z 07002KT 19/03 A3034 RMK A01 T01880032  RH  035%=      5-min Rain = 0
KFL1 261525Z 10003KT 19/02 A3034 RMK A01 T01910018  RH  032%=      5-min Rain = 0
KFL1 261526Z 09001KT 20/02 A3034 RMK A01 T01950016  RH  030%=      5-min Rain = 0
KFL1 261527Z 06002KT 20/M00 A3034 RMK A01 T01951001  RH  027%=      5-min Rain = 0
KFL1 261528Z 08002KT 20/01 A3034 RMK A01 T01950011  RH  029%=      5-min Rain = 0
KFL1 261529Z 09002KT 19/01 A3034 RMK A01 T01940011  RH  029%=      5-min Rain = 0
KFL1 261530Z 12001KT 19/01 A3034 RMK A01 T01940006  RH  028%=      5-min Rain = 0
KFL1 261531Z 09002KT 19/01 A3034 RMK A01 T01940013  RH  030%=      5-min Rain = 0
KFL1 261532Z 11001KT 19/02 A3034 RMK A01 T01940016  RH  030%=      5-min Rain = 0
KFL1 261533Z 11002KT 19/03 A3034 RMK A01 T01940026  RH  033%=      5-min Rain = 0
KFL1 261534Z 12001KT 19/00 A3035 RMK A01 T01940004  RH  028%=      5-min Rain = 0
KFL1 261535Z 15001KT 20/01 A3035 RMK A01 T01960006  RH  028%=      5-min Rain = 0
KFL1 261536Z 16002KT 20/M00 A3035 RMK A01 T01991001  RH  026%=      5-min Rain = 0
KFL1 261537Z 17001KT 20/M01 A3035 RMK A01 T02011006  RH  025%=      5-min Rain = 0
KFL1 261538Z 15003KT 20/00 A3035 RMK A01 T02010002  RH  026%=      5-min Rain = 0
KFL1 261539Z 16001KT 20/01 A3035 RMK A01 T02030006  RH  027%=      5-min Rain = 0
KFL1 261540Z 15002KT 21/01 A3035 RMK A01 T02060008  RH  027%=      5-min Rain = 0
KFL1 261541Z 19001KT 21/M02 A3035 RMK A01 T02051018  RH  022%=      5-min Rain = 0
KFL1 261542Z 13002KT 21/M02 A3035 RMK A01 T02061020  RH  022%=      5-min Rain = 0
KFL1 261543Z 15003KT 21/00 A3035 RMK A01 T02070004  RH  026%=      5-min Rain = 0
KFL1 261544Z 19002KT 21/00 A3035 RMK A01 T02090004  RH  025%=      5-min Rain = 0
KFL1 261545Z 19002KT 21/M02 A3035 RMK A01 T02091017  RH  022%=      5-min Rain = 0
KFL1 261546Z 18001KT 21/00 A3035 RMK A01 T02090000  RH  025%=      5-min Rain = 0
KFL1 261547Z 16002KT 21/00 A3035 RMK A01 T02110003  RH  025%=      5-min Rain = 0
KFL1 261548Z 16002KT 21/M00 A3035 RMK A01 T02131003  RH  024%=      5-min Rain = 0
KFL1 261549Z 14001KT 21/M01 A3035 RMK A01 T02141009  RH  023%=      5-min Rain = 0
KFL1 261550Z 18001KT 21/M01 A3035 RMK A01 T02141009  RH  023%=      5-min Rain = 0
KFL1 261551Z 20002KT 22/01 A3035 RMK A01 T02160008  RH  025%=      5-min Rain = 0
KFL1 261552Z 19003KT 22/01 A3035 RMK A01 T02160005  RH  025%=      5-min Rain = 0
KFL1 261553Z 20006KT 22/M01 A3035 RMK A01 T02171010  RH  022%=      5-min Rain = 0
KFL1 261554Z 22004KT 22/M01 A3035 RMK A01 T02171009  RH  022%=      5-min Rain = 0
KFL1 261555Z 22006KT 22/M02 A3035 RMK A01 T02151015  RH  021%=      5-min Rain = 0
KFL1 261556Z 24006KT 21/00 A3035 RMK A01 T02140001  RH  024%=      5-min Rain = 0
KFL1 261557Z 19004KT 21/M00 A3035 RMK A01 T02131003  RH  024%=      5-min Rain = 0
KFL1 261558Z 18005KT 21/M00 A3035 RMK A01 T02121001  RH  024%=      5-min Rain = 0
KFL1 261559Z 20005KT 21/01 A3035 RMK A01 T02120010  RH  026%=      5-min Rain = 0
KFL1 261600Z 19006KT 21/00 A3035 RMK A01 T02140004  RH  025%=      5-min Rain = 0
KFL1 261601Z 20003KT 22/01 A3035 RMK A01 T02160006  RH  025%=      5-min Rain = 0
KFL1 261602Z 23004KT 22/02 A3035 RMK A01 T02180016  RH  026%=      5-min Rain = 0
KFL1 261603Z 22004KT 22/01 A3035 RMK A01 T02170010  RH  025%=      5-min Rain = 0
KFL1 261604Z 23004KT 22/02 A3035 RMK A01 T02180018  RH  027%=      5-min Rain = 0
KFL1 261605Z 23007KT 22/02 A3035 RMK A01 T02200017  RH  026%=      5-min Rain = 0
KFL1 261606Z 24007KT 22/01 A3035 RMK A01 T02210006  RH  024%=      5-min Rain = 0
KFL1 261607Z 25005KT 22/M00 A3035 RMK A01 T02181001  RH  023%=      5-min Rain = 0
KFL1 261608Z 25003KT 22/M01 A3035 RMK A01 T02161009  RH  022%=      5-min Rain = 0
KFL1 261609Z 21004KT 21/01 A3035 RMK A01 T02140005  RH  025%=      5-min Rain = 0
KFL1 261610Z 21004KT 21/01 A3035 RMK A01 T02130014  RH  027%=      5-min Rain = 0
KFL1 261611Z 19005KT 22/01 A3035 RMK A01 T02150013  RH  026%=      5-min Rain = 0
KFL1 261612Z 23003KT 21/01 A3035 RMK A01 T02140014  RH  026%=      5-min Rain = 0
KFL1 261613Z 21002KT 22/01 A3035 RMK A01 T02150008  RH  025%=      5-min Rain = 0
KFL1 261614Z 23007KT 22/03 A3035 RMK A01 T02160025  RH  028%=      5-min Rain = 0
KFL1 261615Z 23006KT 22/03 A3035 RMK A01 T02170030  RH  029%=      5-min Rain = 0
KFL1 261616Z 22006KT 22/03 A3035 RMK A01 T02200027  RH  028%=      5-min Rain = 0
KFL1 261617Z 22004KT 22/01 A3035 RMK A01 T02200009  RH  025%=      5-min Rain = 0
KFL1 261618Z 23003KT 22/00 A3035 RMK A01 T02200004  RH  024%=      5-min Rain = 0
KFL1 261619Z 25005KT 22/01 A3035 RMK A01 T02200008  RH  025%=      5-min Rain = 0
KFL1 261620Z 23005KT 22/01 A3035 RMK A01 T02170012  RH  026%=      5-min Rain = 0
KFL1 261621Z 25004KT 22/02 A3035 RMK A01 T02150018  RH  027%=      5-min Rain = 0
KFL1 261622Z 21003KT 21/01 A3035 RMK A01 T02140011  RH  026%=      5-min Rain = 0
KFL1 261623Z 23005KT 21/02 A3035 RMK A01 T02130018  RH  028%=      5-min Rain = 0
KFL1 261624Z 24006KT 22/02 A3035 RMK A01 T02150015  RH  027%=      5-min Rain = 0
KFL1 261625Z 21007KT 22/01 A3035 RMK A01 T02160012  RH  026%=      5-min Rain = 0
KFL1 261626Z 22007KT 22/M00 A3035 RMK A01 T02161002  RH  023%=      5-min Rain = 0
KFL1 261627Z 21006KT 22/M01 A3035 RMK A01 T02151007  RH  023%=      5-min Rain = 0
KFL1 261628Z 23005KT 22/01 A3035 RMK A01 T02180006  RH  024%=      5-min Rain = 0
KFL1 261629Z 24008KT 22/01 A3035 RMK A01 T02190014  RH  026%=      5-min Rain = 0
KFL1 261630Z 24009KT 22/01 A3035 RMK A01 T02200013  RH  025%=      5-min Rain = 0
KFL1 261631Z 23004KT 22/01 A3035 RMK A01 T02210011  RH  025%=      5-min Rain = 0
KFL1 261632Z 23006KT 22/01 A3035 RMK A01 T02220011  RH  025%=      5-min Rain = 0
KFL1 261633Z 22004KT 22/01 A3035 RMK A01 T02230005  RH  024%=      5-min Rain = 0
KFL1 261634Z 21006KT 22/02 A3035 RMK A01 T02220015  RH  025%=      5-min Rain = 0
KFL1 261635Z 23005KT 22/02 A3035 RMK A01 T02220017  RH  026%=      5-min Rain = 0
KFL1 261636Z 23006KT 22/02 A3035 RMK A01 T02230022  RH  027%=      5-min Rain = 0
KFL1 261637Z 25007KT 22/00 A3035 RMK A01 T02180002  RH  024%=      5-min Rain = 0
KFL1 261638Z 25006KT 21/00 A3035 RMK A01 T02140004  RH  025%=      5-min Rain = 0
KFL1 261639Z 25006KT 21/02 A3035 RMK A01 T02120019  RH  028%=      5-min Rain = 0
KFL1 261640Z 26006KT 21/03 A3035 RMK A01 T02120025  RH  029%=      5-min Rain = 0
KFL1 261641Z 23003KT 21/04 A3035 RMK A01 T02130037  RH  031%=      5-min Rain = 0
KFL1 261642Z 20005KT 21/02 A3035 RMK A01 T02140022  RH  028%=      5-min Rain = 0
KFL1 261643Z 18006KT 22/01 A3035 RMK A01 T02150010  RH  026%=      5-min Rain = 0
KFL1 261644Z 17006KT 21/01 A3035 RMK A01 T02140009  RH  026%=      5-min Rain = 0
KFL1 261645Z 18006KT 21/01 A3034 RMK A01 T02120014  RH  027%=      5-min Rain = 0
KFL1 261646Z 17005KT 21/01 A3034 RMK A01 T02110008  RH  026%=      5-min Rain = 0
KFL1 261647Z 16006KT 21/01 A3034 RMK A01 T02090006  RH  026%=      5-min Rain = 0
KFL1 261648Z 17006KT 21/02 A3034 RMK A01 T02070015  RH  028%=      5-min Rain = 0
KFL1 261649Z 18005KT 21/01 A3034 RMK A01 T02070007  RH  026%=      5-min Rain = 0
KFL1 261650Z 20005KT 21/02 A3034 RMK A01 T02060017  RH  029%=      5-min Rain = 0
KFL1 261651Z 23004KT 20/02 A3034 RMK A01 T02040024  RH  030%=      5-min Rain = 0
KFL1 261652Z 22005KT 20/03 A3035 RMK A01 T02040029  RH  032%=      5-min Rain = 0
KFL1 261653Z 22007KT 20/02 A3035 RMK A01 T02010024  RH  031%=      5-min Rain = 0
KFL1 261654Z 22007KT 20/01 A3035 RMK A01 T02000012  RH  029%=      5-min Rain = 0
KFL1 261655Z 22005KT 20/01 A3035 RMK A01 T01980008  RH  028%=      5-min Rain = 0
KFL1 261656Z 22004KT 20/02 A3035 RMK A01 T01980021  RH  031%=      5-min Rain = 0
KFL1 261657Z 24005KT 20/03 A3035 RMK A01 T01980032  RH  033%=      5-min Rain = 0
KFL1 261658Z 23005KT 20/04 A3035 RMK A01 T01990035  RH  034%=      5-min Rain = 0
KFL1 261659Z 25006KT 20/02 A3035 RMK A01 T02020022  RH  030%=      5-min Rain = 0
KFL1 261700Z 25007KT 20/02 A3035 RMK A01 T02030018  RH  029%=      5-min Rain = 0
KFL1 261701Z 23005KT 21/02 A3035 RMK A01 T02060022  RH  029%=      5-min Rain = 0
KFL1 261702Z 24006KT 21/01 A3035 RMK A01 T02080014  RH  028%=      5-min Rain = 0
KFL1 261703Z 23007KT 21/02 A3035 RMK A01 T02090016  RH  028%=      5-min Rain = 0
KFL1 261704Z 23007KT 21/01 A3035 RMK A01 T02090013  RH  027%=      5-min Rain = 0
KFL1 261705Z 24006KT 21/02 A3035 RMK A01 T02090015  RH  028%=      5-min Rain = 0
KFL1 261706Z 22005KT 21/02 A3035 RMK A01 T02120023  RH  029%=      5-min Rain = 0
KFL1 261707Z 22007KT 21/02 A3035 RMK A01 T02140016  RH  027%=      5-min Rain = 0
KFL1 261708Z 22006KT 22/01 A3035 RMK A01 T02180012  RH  026%=      5-min Rain = 0
KFL1 261709Z 23005KT 22/02 A3035 RMK A01 T02180016  RH  026%=      5-min Rain = 0
KFL1 261710Z 23006KT 22/03 A3035 RMK A01 T02210028  RH  028%=      5-min Rain = 0
KFL1 261711Z 22008KT 22/03 A3036 RMK A01 T02220027  RH  028%=      5-min Rain = 0
KFL1 261712Z 22006KT 22/01 A3035 RMK A01 T02230005  RH  024%=      5-min Rain = 0
KFL1 261713Z 22006KT 22/01 A3035 RMK A01 T02230008  RH  024%=      5-min Rain = 0
KFL1 261714Z 24008KT 23/01 A3036 RMK A01 T02250013  RH  025%=      5-min Rain = 0
KFL1 261715Z 23004KT 22/01 A3036 RMK A01 T02240010  RH  024%=      5-min Rain = 0
KFL1 261716Z 24008G14KT 22/02 A3036 RMK A01 T02240022  RH  026%=      5-min Rain = 0
KFL1 261717Z 25009KT 23/03 A3036 RMK A01 T02250028  RH  027%=      5-min Rain = 0
KFL1 261718Z 26007KT 23/01 A3036 RMK A01 T02260014  RH  025%=      5-min Rain = 0
KFL1 261719Z 25006KT 23/02 A3036 RMK A01 T02260018  RH  025%=      5-min Rain = 0
KFL1 261720Z 25005KT 23/02 A3036 RMK A01 T02250019  RH  026%=      5-min Rain = 0
KFL1 261721Z 23002KT 23/01 A3036 RMK A01 T02260008  RH  024%=      5-min Rain = 0
KFL1 261722Z 25005KT 23/03 A3036 RMK A01 T02270026  RH  027%=      5-min Rain = 0
KFL1 261723Z 26004KT 23/02 A3036 RMK A01 T02300024  RH  026%=      5-min Rain = 0
KFL1 261724Z 32000KT 23/01 A3036 RMK A01 T02310009  RH  023%=      5-min Rain = 0
KFL1 261725Z 23002KT 23/M01 A3036 RMK A01 T02321010  RH  020%=      5-min Rain = 0
KFL1 261726Z 21003KT 23/01 A3036 RMK A01 T02320007  RH  023%=      5-min Rain = 0
KFL1 261727Z 21006KT 23/02 A3036 RMK A01 T02320016  RH  024%=      5-min Rain = 0
KFL1 261728Z 22005KT 23/01 A3036 RMK A01 T02340007  RH  022%=      5-min Rain = 0
KFL1 261729Z 24007G12KT 23/01 A3035 RMK A01 T02310013  RH  024%=      5-min Rain = 0
KFL1 261730Z 25008KT 23/02 A3035 RMK A01 T02310019  RH  025%=      5-min Rain = 0
KFL1 261731Z 24007G13KT 23/03 A3036 RMK A01 T02330028  RH  026%=      5-min Rain = 0
KFL1 261732Z 26008KT 23/03 A3036 RMK A01 T02310025  RH  026%=      5-min Rain = 0
KFL1 261733Z 25007KT 23/02 A3035 RMK A01 T02310019  RH  025%=      5-min Rain = 0
KFL1 261734Z 28006KT 23/01 A3035 RMK A01 T02330009  RH  023%=      5-min Rain = 0
KFL1 261735Z 24010G15KT 23/03 A3035 RMK A01 T02320026  RH  026%=      5-min Rain = 0
KFL1 261736Z 26011KT 23/02 A3035 RMK A01 T02330022  RH  025%=      5-min Rain = 0
KFL1 261737Z 26010KT 23/02 A3035 RMK A01 T02320021  RH  025%=      5-min Rain = 0
KFL1 261738Z 27011KT 23/02 A3035 RMK A01 T02320024  RH  026%=      5-min Rain = 0
KFL1 261739Z 26008KT 23/02 A3035 RMK A01 T02300022  RH  026%=      5-min Rain = 0
KFL1 261740Z 24008KT 23/04 A3036 RMK A01 T02320038  RH  028%=      5-min Rain = 0
KFL1 261741Z 22006KT 23/02 A3036 RMK A01 T02330020  RH  025%=      5-min Rain = 0
KFL1 261742Z 23004KT 24/01 A3036 RMK A01 T02350013  RH  023%=      5-min Rain = 0
KFL1 261743Z 20001KT 24/01 A3036 RMK A01 T02350005  RH  022%=      5-min Rain = 0
KFL1 261744Z 20003KT 23/M01 A3035 RMK A01 T02331014  RH  019%=      5-min Rain = 0
KFL1 261745Z 20004KT 23/M00 A3035 RMK A01 T02321002  RH  021%=      5-min Rain = 0
KFL1 261746Z 17004KT 23/00 A3035 RMK A01 T02320001  RH  022%=      5-min Rain = 0
KFL1 261747Z 17003KT 23/M01 A3035 RMK A01 T02321009  RH  020%=      5-min Rain = 0
KFL1 261748Z 23008G15KT 23/01 A3035 RMK A01 T02310008  RH  023%=      5-min Rain = 0
KFL1 261749Z 25008KT 23/02 A3035 RMK A01 T02330019  RH  025%=      5-min Rain = 0
KFL1 261750Z 22006KT 24/03 A3035 RMK A01 T02350025  RH  025%=      5-min Rain = 0
KFL1 261751Z 22005KT 24/03 A3035 RMK A01 T02370025  RH  025%=      5-min Rain = 0
KFL1 261752Z 22007KT 24/01 A3035 RMK A01 T02370013  RH  023%=      5-min Rain = 0
KFL1 261753Z 26004KT 24/02 A3035 RMK A01 T02390022  RH  024%=      5-min Rain = 0
KFL1 261754Z 22004KT 24/02 A3035 RMK A01 T02390017  RH  023%=      5-min Rain = 0
KFL1 261755Z 18006KT 24/03 A3035 RMK A01 T02400030  RH  025%=      5-min Rain = 0
KFL1 261756Z 20008KT 24/03 A3035 RMK A01 T02430027  RH  024%=      5-min Rain = 0
KFL1 261757Z 20006KT 25/03 A3035 RMK A01 T02460031  RH  025%=      5-min Rain = 0
KFL1 261758Z 23008G14KT 25/02 A3035 RMK A01 T02460019  RH  023%=      5-min Rain = 0
KFL1 261759Z 23011KT 25/02 A3035 RMK A01 T02450022  RH  023%=      5-min Rain = 0
KFL1 261800Z 23009G14KT 24/03 A3035 RMK A01 T02420028  RH  025%=      5-min Rain = 0
KFL1 261801Z 24007KT 24/04 A3035 RMK A01 T02420038  RH  026%=      5-min Rain = 0
KFL1 261802Z 24004KT 24/02 A3035 RMK A01 T02430024  RH  024%=      5-min Rain = 0
KFL1 261803Z 24007G13KT 24/03 A3035 RMK A01 T02430029  RH  025%=      5-min Rain = 0
KFL1 261804Z 23011KT 24/03 A3035 RMK A01 T02430031  RH  025%=      5-min Rain = 0
KFL1 261805Z 23012KT 24/02 A3035 RMK A01 T02410024  RH  024%=      5-min Rain = 0
KFL1 261806Z 22010KT 24/02 A3035 RMK A01 T02390016  RH  023%=      5-min Rain = 0
KFL1 261807Z 23010KT 24/01 A3035 RMK A01 T02390014  RH  023%=      5-min Rain = 0
KFL1 261808Z 25009KT 24/01 A3035 RMK A01 T02370012  RH  023%=      5-min Rain = 0
KFL1 261809Z 24007KT 24/02 A3035 RMK A01 T02360024  RH  025%=      5-min Rain = 0
KFL1 261810Z 23008KT 24/02 A3035 RMK A01 T02380020  RH  024%=      5-min Rain = 0
KFL1 261811Z 23008KT 24/02 A3035 RMK A01 T02390017  RH  023%=      5-min Rain = 0
KFL1 261812Z 25010KT 24/04 A3035 RMK A01 T02400037  RH  027%=      5-min Rain = 0
KFL1 261813Z 28006KT 24/01 A3035 RMK A01 T02410012  RH  022%=      5-min Rain = 0
KFL1 261814Z 24007KT 24/02 A3035 RMK A01 T02390023  RH  024%=      5-min Rain = 0
KFL1 261815Z 23008KT 24/02 A3036 RMK A01 T02410024  RH  024%=      5-min Rain = 0
KFL1 261816Z 23009KT 24/03 A3036 RMK A01 T02410025  RH  024%=      5-min Rain = 0
KFL1 261817Z 25007KT 24/02 A3035 RMK A01 T02420022  RH  024%=      5-min Rain = 0
KFL1 261818Z 24008KT 24/01 A3036 RMK A01 T02420014  RH  023%=      5-min Rain = 0
KFL1 261819Z 24003KT 24/01 A3036 RMK A01 T02410005  RH  021%=      5-min Rain = 0
KFL1 261820Z 22010KT 24/02 A3036 RMK A01 T02400019  RH  023%=      5-min Rain = 0
KFL1 261821Z 21009KT 24/01 A3036 RMK A01 T02410014  RH  023%=      5-min Rain = 0
KFL1 261822Z 20010KT 24/02 A3036 RMK A01 T02410017  RH  023%=      5-min Rain = 0
KFL1 261823Z 19010KT 24/01 A3035 RMK A01 T02430014  RH  022%=      5-min Rain = 0
KFL1 261824Z 18008KT 25/02 A3035 RMK A01 T02450017  RH  023%=      5-min Rain = 0
KFL1 261825Z 22008KT 25/03 A3035 RMK A01 T02470026  RH  024%=      5-min Rain = 0
KFL1 261826Z 22008KT 25/02 A3035 RMK A01 T02480024  RH  023%=      5-min Rain = 0
KFL1 261827Z 19006KT 25/01 A3035 RMK A01 T02490013  RH  021%=      5-min Rain = 0
KFL1 261828Z 19006G13KT 25/03 A3035 RMK A01 T02500026  RH  023%=      5-min Rain = 0
KFL1 261829Z 18010KT 25/01 A3035 RMK A01 T02500010  RH  021%=      5-min Rain = 0
KFL1 261830Z 18008KT 25/01 A3035 RMK A01 T02480009  RH  021%=      5-min Rain = 0
KFL1 261831Z 18007KT 25/01 A3035 RMK A01 T02470006  RH  021%=      5-min Rain = 0
KFL1 261832Z 18008G13KT 25/02 A3035 RMK A01 T02470017  RH  022%=      5-min Rain = 0
KFL1 261833Z 19012KT 25/02 A3035 RMK A01 T02470021  RH  023%=      5-min Rain = 0
KFL1 261834Z 20014KT 25/01 A3035 RMK A01 T02500012  RH  021%=      5-min Rain = 0
KFL1 261835Z 23009KT 25/01 A3035 RMK A01 T02490011  RH  021%=      5-min Rain = 0
KFL1 261836Z 25010G15KT 25/03 A3035 RMK A01 T02470026  RH  024%=      5-min Rain = 0
KFL1 261837Z 23008KT 25/02 A3035 RMK A01 T02480021  RH  023%=      5-min Rain = 0
KFL1 261838Z 24005KT 25/02 A3035 RMK A01 T02490017  RH  022%=      5-min Rain = 0
KFL1 261839Z 24006KT 25/03 A3035 RMK A01 T02490028  RH  024%=      5-min Rain = 0
KFL1 261840Z 23009G14KT 25/02 A3035 RMK A01 T02500018  RH  022%=      5-min Rain = 0
KFL1 261841Z 23006KT 25/01 A3035 RMK A01 T02490006  RH  020%=      5-min Rain = 0
KFL1 261842Z 20009KT 25/02 A3035 RMK A01 T02500020  RH  022%=      5-min Rain = 0
KFL1 261843Z 20008KT 25/01 A3035 RMK A01 T02510013  RH  021%=      5-min Rain = 0
KFL1 261844Z 19005KT 25/01 A3035 RMK A01 T02510013  RH  021%=      5-min Rain = 0
KFL1 261845Z 19010KT 25/01 A3035 RMK A01 T02530012  RH  021%=      5-min Rain = 0
KFL1 261846Z 17008KT 25/01 A3035 RMK A01 T02520010  RH  020%=      5-min Rain = 0
KFL1 261847Z 17006KT 25/02 A3035 RMK A01 T02500016  RH  022%=      5-min Rain = 0
KFL1 261848Z 18007KT 25/03 A3035 RMK A01 T02500025  RH  023%=      5-min Rain = 0
KFL1 261849Z 18006KT 25/02 A3035 RMK A01 T02480023  RH  023%=      5-min Rain = 0
KFL1 261850Z 18008KT 25/02 A3035 RMK A01 T02460022  RH  023%=      5-min Rain = 0
KFL1 261851Z 19008KT 24/01 A3035 RMK A01 T02430013  RH  022%=      5-min Rain = 0
KFL1 261852Z 20006KT 25/02 A3035 RMK A01 T02450021  RH  023%=      5-min Rain = 0
KFL1 261853Z 21009KT 25/02 A3035 RMK A01 T02450016  RH  022%=      5-min Rain = 0
KFL1 261854Z 23006KT 25/02 A3035 RMK A01 T02450020  RH  023%=      5-min Rain = 0
KFL1 261855Z 22008KT 24/02 A3035 RMK A01 T02440016  RH  022%=      5-min Rain = 0
KFL1 261856Z 21011KT 24/01 A3035 RMK A01 T02440012  RH  022%=      5-min Rain = 0
KFL1 261857Z 22006KT 24/03 A3035 RMK A01 T02430030  RH  025%=      5-min Rain = 0
KFL1 261858Z 21006KT 25/04 A3035 RMK A01 T02480041  RH  026%=      5-min Rain = 0
KFL1 261859Z 19010G17KT 25/04 A3036 RMK A01 T02520039  RH  025%=      5-min Rain = 0
KFL1 261900Z 18011KT 26/02 A3035 RMK A01 T02550016  RH  021%=      5-min Rain = 0
KFL1 261901Z 17008KT 25/00 A3035 RMK A01 T02530003  RH  019%=      5-min Rain = 0
KFL1 261902Z 17010KT 25/02 A3035 RMK A01 T02500018  RH  022%=      5-min Rain = 0
KFL1 261903Z 19011G18KT 25/03 A3035 RMK A01 T02520025  RH  023%=      5-min Rain = 0
KFL1 261904Z 21014KT 25/02 A3036 RMK A01 T02510015  RH  021%=      5-min Rain = 0
KFL1 261905Z 21013KT 25/01 A3036 RMK A01 T02500011  RH  021%=      5-min Rain = 0
KFL1 261906Z 21008KT 25/01 A3036 RMK A01 T02490013  RH  021%=      5-min Rain = 0
KFL1 261907Z 22013KT 25/02 A3036 RMK A01 T02500015  RH  022%=      5-min Rain = 0
KFL1 261908Z 22012KT 25/01 A3036 RMK A01 T02470009  RH  021%=      5-min Rain = 0
KFL1 261909Z 22009G14KT 25/01 A3036 RMK A01 T02460006  RH  021%=      5-min Rain = 0
KFL1 261910Z 22005KT 25/01 A3036 RMK A01 T02460014  RH  022%=      5-min Rain = 0
KFL1 261911Z 23009G14KT 25/02 A3036 RMK A01 T02450022  RH  023%=      5-min Rain = 0
KFL1 261912Z 20013KT 25/03 A3036 RMK A01 T02460026  RH  024%=      5-min Rain = 0
KFL1 261913Z 21011KT 25/01 A3036 RMK A01 T02480012  RH  021%=      5-min Rain = 0
KFL1 261914Z 20011KT 25/01 A3036 RMK A01 T02480011  RH  021%=      5-min Rain = 0
KFL1 261915Z 20009KT 25/01 A3036 RMK A01 T02480013  RH  021%=      5-min Rain = 0
KFL1 261916Z 21005KT 25/00 A3036 RMK A01 T02490001  RH  020%=      5-min Rain = 0
KFL1 261917Z 19004KT 25/02 A3036 RMK A01 T02480018  RH  022%=      5-min Rain = 0
KFL1 261918Z 19010KT 25/03 A3036 RMK A01 T02510029  RH  024%=      5-min Rain = 0
KFL1 261919Z 20010KT 26/01 A3036 RMK A01 T02550014  RH  021%=      5-min Rain = 0
KFL1 261920Z 21008KT 26/01 A3036 RMK A01 T02560013  RH  020%=      5-min Rain = 0
KFL1 261921Z 18006KT 26/02 A3036 RMK A01 T02570016  RH  021%=      5-min Rain = 0
KFL1 261922Z 23007KT 26/02 A3036 RMK A01 T02560017  RH  021%=      5-min Rain = 0
KFL1 261923Z 22010KT 26/01 A3036 RMK A01 T02560013  RH  020%=      5-min Rain = 0
KFL1 261924Z 22010KT 26/01 A3036 RMK A01 T02550014  RH  021%=      5-min Rain = 0
KFL1 261925Z 19008KT 25/M01 A3036 RMK A01 T02511005  RH  019%=      5-min Rain = 0
KFL1 261926Z 20007KT 25/00 A3036 RMK A01 T02480002  RH  020%=      5-min Rain = 0
KFL1 261927Z 19006KT 25/M00 A3036 RMK A01 T02471001  RH  020%=      5-min Rain = 0
KFL1 261928Z 19008KT 25/01 A3036 RMK A01 T02460010  RH  021%=      5-min Rain = 0
KFL1 261929Z 19007KT 25/01 A3036 RMK A01 T02450009  RH  021%=      5-min Rain = 0
KFL1 261930Z 18008KT 24/00 A3036 RMK A01 T02410002  RH  021%=      5-min Rain = 0
KFL1 261931Z 20007KT 24/00 A3036 RMK A01 T02400001  RH  021%=      5-min Rain = 0
KFL1 261932Z 21007KT 24/M00 A3036 RMK A01 T02411004  RH  020%=      5-min Rain = 0
KFL1 261933Z 22009G14KT 25/01 A3036 RMK A01 T02450005  RH  021%=      5-min Rain = 0
KFL1 261934Z 21013KT 25/01 A3036 RMK A01 T02460009  RH  021%=      5-min Rain = 0
KFL1 261935Z 21010KT 25/00 A3036 RMK A01 T02460003  RH  020%=      5-min Rain = 0
KFL1 261936Z 22006KT 25/00 A3036 RMK A01 T02470004  RH  020%=      5-min Rain = 0
KFL1 261937Z 23010KT 25/01 A3036 RMK A01 T02510014  RH  021%=      5-min Rain = 0
KFL1 261938Z 23009KT 25/01 A3036 RMK A01 T02480008  RH  021%=      5-min Rain = 0
KFL1 261939Z 20006KT 25/02 A3036 RMK A01 T02470016  RH  022%=      5-min Rain = 0
KFL1 261940Z 22007KT 25/01 A3036 RMK A01 T02500010  RH  021%=      5-min Rain = 0
KFL1 261941Z 21007KT 25/01 A3036 RMK A01 T02510010  RH  021%=      5-min Rain = 0
KFL1 261942Z 19006KT 25/M01 A3036 RMK A01 T02511009  RH  018%=      5-min Rain = 0
KFL1 261943Z 20006KT 25/01 A3035 RMK A01 T02500007  RH  020%=      5-min Rain = 0
KFL1 261944Z 25004KT 25/00 A3035 RMK A01 T02510002  RH  019%=      5-min Rain = 0
KFL1 261945Z 23006G11KT 25/02 A3035 RMK A01 T02510022  RH  023%=      5-min Rain = 0
KFL1 261946Z 23012KT 25/02 A3035 RMK A01 T02520015  RH  021%=      5-min Rain = 0
KFL1 261947Z 20009KT 25/03 A3035 RMK A01 T02520027  RH  023%=      5-min Rain = 0
KFL1 261948Z 20008KT 25/02 A3035 RMK A01 T02540021  RH  022%=      5-min Rain = 0
KFL1 261949Z 20009KT 26/02 A3035 RMK A01 T02570018  RH  021%=      5-min Rain = 0
KFL1 261950Z 19007KT 26/01 A3035 RMK A01 T02580007  RH  019%=      5-min Rain = 0
KFL1 261951Z 17008KT 26/01 A3035 RMK A01 T02570013  RH  020%=      5-min Rain = 0
KFL1 261952Z 18004KT 26/03 A3035 RMK A01 T02590027  RH  022%=      5-min Rain = 0
KFL1 261953Z 15004KT 26/03 A3035 RMK A01 T02630026  RH  022%=      5-min Rain = 0
KFL1 261954Z 11002KT 26/01 A3035 RMK A01 T02640010  RH  019%=      5-min Rain = 0
KFL1 261955Z 14004KT 26/00 A3035 RMK A01 T02590001  RH  018%=      5-min Rain = 0
KFL1 261956Z 16004KT 26/M00 A3035 RMK A01 T02551003  RH  018%=      5-min Rain = 0
KFL1 261957Z 20006G12KT 25/02 A3035 RMK A01 T02540015  RH  021%=      5-min Rain = 0
KFL1 261958Z 20007KT 26/01 A3035 RMK A01 T02560013  RH  020%=      5-min Rain = 0
KFL1 261959Z 21007G12KT 26/01 A3035 RMK A01 T02570008  RH  020%=      5-min Rain = 0
KFL1 262000Z 22010KT 26/M00 A3035 RMK A01 T02571002  RH  018%=      5-min Rain = 0
KFL1 262001Z 21003KT 25/M00 A3035 RMK A01 T02521003  RH  019%=      5-min Rain = 0
KFL1 262002Z 22007G12KT 25/01 A3035 RMK A01 T02510012  RH  021%=      5-min Rain = 0
KFL1 262003Z 20007G12KT 25/02 A3035 RMK A01 T02520020  RH  022%=      5-min Rain = 0
KFL1 262004Z 17007G12KT 25/03 A3035 RMK A01 T02540027  RH  023%=      5-min Rain = 0
KFL1 262005Z 19008KT 26/01 A3035 RMK A01 T02560011  RH  020%=      5-min Rain = 0
KFL1 262006Z 21003KT 26/02 A3035 RMK A01 T02580016  RH  021%=      5-min Rain = 0
KFL1 262007Z 19003KT 26/00 A3035 RMK A01 T02610004  RH  019%=      5-min Rain = 0
KFL1 262008Z 20007KT 26/02 A3035 RMK A01 T02620021  RH  021%=      5-min Rain = 0
KFL1 262009Z 19006KT 26/01 A3035 RMK A01 T02630011  RH  019%=      5-min Rain = 0
KFL1 262010Z 15002KT 26/M02 A3035 RMK A01 T02621020  RH  016%=      5-min Rain = 0
KFL1 262011Z 15007KT 26/M02 A3035 RMK A01 T02581019  RH  016%=      5-min Rain = 0
KFL1 262012Z 14003G10KT 25/M03 A3034 RMK A01 T02531025  RH  016%=      5-min Rain = 0
KFL1 262013Z 18007KT 25/01 A3035 RMK A01 T02510005  RH  020%=      5-min Rain = 0
KFL1 262014Z 18008KT 25/01 A3035 RMK A01 T02540009  RH  020%=      5-min Rain = 0
KFL1 262015Z 17007KT 26/01 A3035 RMK A01 T02570007  RH  019%=      5-min Rain = 0
KFL1 262016Z 19006KT 26/01 A3035 RMK A01 T02600006  RH  019%=      5-min Rain = 0
KFL1 262017Z 21006KT 26/M00 A3035 RMK A01 T02631003  RH  017%=      5-min Rain = 0
KFL1 262018Z 22006KT 26/01 A3035 RMK A01 T02630010  RH  019%=      5-min Rain = 0
KFL1 262019Z 21009KT 26/00 A3035 RMK A01 T02630004  RH  018%=      5-min Rain = 0
KFL1 262020Z 21011KT 26/M00 A3035 RMK A01 T02611001  RH  018%=      5-min Rain = 0
KFL1 262021Z 21008KT 26/M01 A3035 RMK A01 T02601012  RH  017%=      5-min Rain = 0
KFL1 262022Z 21007KT 26/M00 A3035 RMK A01 T02581002  RH  018%=      5-min Rain = 0
KFL1 262023Z 20006KT 26/M00 A3035 RMK A01 T02591002  RH  018%=      5-min Rain = 0
KFL1 262024Z 16007KT 26/M01 A3035 RMK A01 T02581007  RH  017%=      5-min Rain = 0
KFL1 262025Z 18007KT 26/M00 A3035 RMK A01 T02601002  RH  018%=      5-min Rain = 0
KFL1 262026Z 17006KT 26/M02 A3035 RMK A01 T02601015  RH  016%=      5-min Rain = 0
KFL1 262027Z 18005KT 26/M02 A3035 RMK A01 T02601016  RH  016%=      5-min Rain = 0
KFL1 262028Z 22005KT 26/M01 A3035 RMK A01 T02591014  RH  017%=      5-min Rain = 0
KFL1 262029Z 21005KT 26/M01 A3035 RMK A01 T02571014  RH  017%=      5-min Rain = 0
KFL1 262030Z 20005KT 26/00 A3035 RMK A01 T02580000  RH  018%=      5-min Rain = 0
KFL1 262031Z 20004KT 26/M02 A3035 RMK A01 T02581020  RH  016%=      5-min Rain = 0
KFL1 262032Z 22004KT 26/M01 A3035 RMK A01 T02581011  RH  017%=      5-min Rain = 0
KFL1 262033Z 18003KT 26/M00 A3035 RMK A01 T02581004  RH  018%=      5-min Rain = 0
KFL1 262034Z 23007G12KT 26/00 A3034 RMK A01 T02590002  RH  019%=      5-min Rain = 0
KFL1 262035Z 20008KT 26/01 A3034 RMK A01 T02610006  RH  019%=      5-min Rain = 0
KFL1 262036Z 19009KT 26/00 A3034 RMK A01 T02610001  RH  018%=      5-min Rain = 0
KFL1 262037Z 21011KT 26/00 A3034 RMK A01 T02600002  RH  018%=      5-min Rain = 0
KFL1 262038Z 22009KT 26/00 A3034 RMK A01 T02600003  RH  019%=      5-min Rain = 0
KFL1 262039Z 27008KT 26/M01 A3034 RMK A01 T02601008  RH  017%=      5-min Rain = 0
KFL1 262040Z 28006KT 26/M01 A3034 RMK A01 T02571006  RH  018%=      5-min Rain = 0
KFL1 262041Z 20004KT 26/02 A3034 RMK A01 T02570017  RH  021%=      5-min Rain = 0
KFL1 262042Z 19004KT 26/03 A3034 RMK A01 T02620028  RH  022%=      5-min Rain = 0
KFL1 262043Z 20008KT 27/01 A3034 RMK A01 T02660014  RH  019%=      5-min Rain = 0
KFL1 262044Z 19005KT 27/01 A3034 RMK A01 T02680011  RH  019%=      5-min Rain = 0
KFL1 262045Z 20005KT 27/02 A3034 RMK A01 T02690018  RH  020%=      5-min Rain = 0
KFL1 262046Z 19007G13KT 27/01 A3034 RMK A01 T02710012  RH  019%=      5-min Rain = 0
KFL1 262047Z 22008KT 27/01 A3034 RMK A01 T02700008  RH  018%=      5-min Rain = 0
KFL1 262048Z 21009KT 27/00 A3034 RMK A01 T02670000  RH  017%=      5-min Rain = 0
KFL1 262049Z 22005KT 27/M00 A3034 RMK A01 T02651002  RH  017%=      5-min Rain = 0
KFL1 262050Z 24004KT 27/00 A3034 RMK A01 T02650003  RH  018%=      5-min Rain = 0
KFL1 262051Z 25004KT 27/01 A3034 RMK A01 T02650011  RH  019%=      5-min Rain = 0
KFL1 262052Z 25003KT 27/01 A3034 RMK A01 T02650005  RH  018%=      5-min Rain = 0
KFL1 262053Z 24004KT 27/01 A3034 RMK A01 T02660009  RH  019%=      5-min Rain = 0
KFL1 262054Z 17006G12KT 27/01 A3034 RMK A01 T02660005  RH  018%=      5-min Rain = 0
KFL1 262055Z 21008KT 27/01 A3034 RMK A01 T02660007  RH  018%=      5-min Rain = 0
KFL1 262056Z 22010KT 27/01 A3034 RMK A01 T02660007  RH  018%=      5-min Rain = 0
KFL1 262057Z 20011KT 26/M01 A3034 RMK A01 T02641005  RH  017%=      5-min Rain = 0
KFL1 262058Z 20012KT 26/00 A3034 RMK A01 T02620003  RH  018%=      5-min Rain = 0
KFL1 262059Z 20006KT 26/00 A3034 RMK A01 T026400-0  RH  018%=      5-min Rain = 0
KFL1 262100Z 20005KT 26/00 A3034 RMK A01 T02620000  RH  018%=      5-min Rain = 0
KFL1 262101Z 21008KT 26/M00 A3034 RMK A01 T02571001  RH  018%=      5-min Rain = 0
KFL1 262102Z 19007KT 25/M01 A3034 RMK A01 T02521013  RH  017%=      5-min Rain = 0
KFL1 262103Z 19010KT 25/M01 A3034 RMK A01 T02461011  RH  018%=      5-min Rain = 0
KFL1 262104Z 18008KT 24/M01 A3034 RMK A01 T02431011  RH  019%=      5-min Rain = 0
KFL1 262105Z 19008KT 24/M01 A3034 RMK A01 T02441005  RH  019%=      5-min Rain = 0
KFL1 262106Z 19008G13KT 24/M01 A3034 RMK A01 T02431009  RH  019%=      5-min Rain = 0
KFL1 262107Z 20008KT 25/00 A3034 RMK A01 T02460003  RH  020%=      5-min Rain = 0
KFL1 262108Z 20008KT 25/M01 A3034 RMK A01 T02481006  RH  019%=      5-min Rain = 0
KFL1 262109Z 20008KT 25/01 A3034 RMK A01 T02480007  RH  020%=      5-min Rain = 0
KFL1 262110Z 21008KT 25/M00 A3034 RMK A01 T02511001  RH  019%=      5-min Rain = 0
KFL1 262111Z 18007KT 25/01 A3033 RMK A01 T02530006  RH  020%=      5-min Rain = 0
KFL1 262112Z 21005KT 26/01 A3033 RMK A01 T02550005  RH  019%=      5-min Rain = 0
KFL1 262113Z 21006KT 26/M00 A3033 RMK A01 T02581003  RH  018%=      5-min Rain = 0
KFL1 262114Z 23008KT 26/01 A3033 RMK A01 T02570007  RH  019%=      5-min Rain = 0
KFL1 262115Z 23008KT 26/01 A3033 RMK A01 T02570005  RH  019%=      5-min Rain = 0
KFL1 262116Z 24005KT 26/02 A3033 RMK A01 T02580016  RH  021%=      5-min Rain = 0
KFL1 262117Z 23004KT 26/01 A3033 RMK A01 T02560005  RH  019%=      5-min Rain = 0
KFL1 262118Z 22006KT 25/M01 A3033 RMK A01 T02521006  RH  018%=      5-min Rain = 0
KFL1 262119Z 22003KT 25/M02 A3033 RMK A01 T02471020  RH  017%=      5-min Rain = 0
KFL1 262120Z 22005KT 25/M01 A3033 RMK A01 T02451007  RH  019%=      5-min Rain = 0
KFL1 262121Z 20006KT 25/01 A3033 RMK A01 T02460005  RH  021%=      5-min Rain = 0
KFL1 262122Z 20007KT 25/02 A3033 RMK A01 T02490017  RH  022%=      5-min Rain = 0
KFL1 262123Z 19008KT 25/01 A3033 RMK A01 T02540011  RH  020%=      5-min Rain = 0
KFL1 262124Z 20008KT 25/01 A3033 RMK A01 T02540008  RH  020%=      5-min Rain = 0
KFL1 262125Z 21008KT 26/00 A3033 RMK A01 T02560001  RH  019%=      5-min Rain = 0
KFL1 262126Z 20007G12KT 26/01 A3033 RMK A01 T02560009  RH  020%=      5-min Rain = 0
KFL1 262127Z 20010KT 26/01 A3033 RMK A01 T02560005  RH  019%=      5-min Rain = 0
KFL1 262128Z 21008KT 26/01 A3033 RMK A01 T02560006  RH  019%=      5-min Rain = 0
KFL1 262129Z 20009KT 25/01 A3033 RMK A01 T02540010  RH  020%=      5-min Rain = 0
KFL1 262130Z 21007KT 25/01 A3033 RMK A01 T02540007  RH  020%=      5-min Rain = 0
KFL1 262131Z 20005KT 25/00 A3033 RMK A01 T02540002  RH  019%=      5-min Rain = 0
KFL1 262132Z 19006KT 25/01 A3033 RMK A01 T02540007  RH  020%=      5-min Rain = 0
KFL1 262133Z 20008G14KT 26/02 A3033 RMK A01 T02560015  RH  021%=      5-min Rain = 0
KFL1 262134Z 18008G13KT 26/02 A3033 RMK A01 T02560017  RH  021%=      5-min Rain = 0
KFL1 262135Z 19011KT 26/01 A3033 RMK A01 T02570012  RH  020%=      5-min Rain = 0
KFL1 262136Z 23008KT 26/00 A3033 RMK A01 T02560000  RH  019%=      5-min Rain = 0
KFL1 262137Z 21008KT 26/01 A3033 RMK A01 T02560014  RH  021%=      5-min Rain = 0
KFL1 262138Z 20007KT 26/02 A3033 RMK A01 T02570020  RH  021%=      5-min Rain = 0
KFL1 262139Z 20008KT 26/01 A3033 RMK A01 T02600005  RH  019%=      5-min Rain = 0
KFL1 262140Z 21009KT 26/01 A3033 RMK A01 T02630008  RH  019%=      5-min Rain = 0
KFL1 262141Z 20008KT 26/01 A3033 RMK A01 T02620014  RH  020%=      5-min Rain = 0
KFL1 262142Z 18006KT 27/01 A3033 RMK A01 T02660006  RH  018%=      5-min Rain = 0
KFL1 262143Z 22008KT 27/01 A3033 RMK A01 T02660014  RH  019%=      5-min Rain = 0
KFL1 262144Z 22006KT 27/00 A3033 RMK A01 T02680002  RH  018%=      5-min Rain = 0
KFL1 262145Z 22004KT 27/01 A3033 RMK A01 T02680005  RH  018%=      5-min Rain = 0
KFL1 262146Z 20007KT 27/01 A3033 RMK A01 T02680005  RH  018%=      5-min Rain = 0
KFL1 262147Z 21004KT 27/M00 A3033 RMK A01 T02681004  RH  017%=      5-min Rain = 0
KFL1 262148Z 25003KT 27/00 A3033 RMK A01 T026800-0  RH  017%=      5-min Rain = 0
KFL1 262149Z 25007G14KT 27/01 A3033 RMK A01 T02690005  RH  018%=      5-min Rain = 0
KFL1 262150Z 25009KT 27/02 A3033 RMK A01 T02700019  RH  020%=      5-min Rain = 0
KFL1 262151Z 24005KT 27/04 A3032 RMK A01 T02730041  RH  023%=      5-min Rain = 0
KFL1 262152Z 24006KT 27/02 A3032 RMK A01 T02730020  RH  020%=      5-min Rain = 0
KFL1 262153Z 25008KT 27/M00 A3032 RMK A01 T02661003  RH  017%=      5-min Rain = 0
KFL1 262154Z 24006KT 26/M02 A3032 RMK A01 T02551016  RH  017%=      5-min Rain = 0
KFL1 262155Z 25004KT 25/M01 A3032 RMK A01 T02501011  RH  018%=      5-min Rain = 0
KFL1 262156Z 26004KT 25/00 A3032 RMK A01 T02480002  RH  020%=      5-min Rain = 0
KFL1 262157Z 25002KT 25/M02 A3032 RMK A01 T02471020  RH  017%=      5-min Rain = 0
KFL1 262158Z 20001KT 25/M03 A3032 RMK A01 T02461028  RH  016%=      5-min Rain = 0
KFL1 262159Z 18002KT 25/M01 A3032 RMK A01 T02461009  RH  019%=      5-min Rain = 0
KFL1 262200Z 17002KT 25/01 A3032 RMK A01 T02460013  RH  022%=      5-min Rain = 0
KFL1 262201Z 18003KT 25/02 A3032 RMK A01 T02460018  RH  023%=      5-min Rain = 0
KFL1 262202Z 20005KT 25/02 A3032 RMK A01 T02470020  RH  023%=      5-min Rain = 0
KFL1 262203Z 20005KT 25/01 A3032 RMK A01 T02460013  RH  022%=      5-min Rain = 0
KFL1 262204Z 20005KT 25/02 A3032 RMK A01 T02460018  RH  023%=      5-min Rain = 0
KFL1 262205Z 17004KT 25/00 A3032 RMK A01 T024500-0  RH  020%=      5-min Rain = 0
KFL1 262206Z 19006KT 24/00 A3032 RMK A01 T024400-0  RH  020%=      5-min Rain = 0
KFL1 262207Z 19006KT 24/02 A3032 RMK A01 T02440015  RH  022%=      5-min Rain = 0
KFL1 262208Z 21006KT 24/01 A3032 RMK A01 T02440011  RH  022%=      5-min Rain = 0
KFL1 262209Z 21006KT 24/02 A3032 RMK A01 T02440016  RH  023%=      5-min Rain = 0
KFL1 262210Z 20006KT 24/02 A3032 RMK A01 T02440021  RH  023%=      5-min Rain = 0
KFL1 262211Z 21006G11KT 25/02 A3032 RMK A01 T02450019  RH  023%=      5-min Rain = 0
KFL1 262212Z 23007KT 25/01 A3032 RMK A01 T02460014  RH  022%=      5-min Rain = 0
KFL1 262213Z 23009KT 24/03 A3032 RMK A01 T02440026  RH  024%=      5-min Rain = 0
KFL1 262214Z 23009KT 24/03 A3032 RMK A01 T02430032  RH  025%=      5-min Rain = 0
KFL1 262215Z 24007KT 24/02 A3032 RMK A01 T02420018  RH  023%=      5-min Rain = 0
KFL1 262216Z 24007KT 24/03 A3032 RMK A01 T02430025  RH  024%=      5-min Rain = 0
KFL1 262217Z 23006KT 24/02 A3032 RMK A01 T02410017  RH  023%=      5-min Rain = 0
KFL1 262218Z 24007KT 24/02 A3032 RMK A01 T02370019  RH  024%=      5-min Rain = 0
KFL1 262219Z 23008KT 24/01 A3032 RMK A01 T02360012  RH  023%=      5-min Rain = 0
KFL1 262220Z 22010KT 24/01 A3032 RMK A01 T02350010  RH  023%=      5-min Rain = 0
KFL1 262221Z 21012KT 24/00 A3032 RMK A01 T02350003  RH  022%=      5-min Rain = 0
KFL1 262222Z 22009KT 24/00 A3032 RMK A01 T02350003  RH  022%=      5-min Rain = 0
KFL1 262223Z 22010KT 24/02 A3032 RMK A01 T02350015  RH  023%=      5-min Rain = 0
KFL1 262224Z 21009G15KT 24/01 A3032 RMK A01 T02360012  RH  023%=      5-min Rain = 0
KFL1 262225Z 22010KT 24/01 A3032 RMK A01 T02360011  RH  023%=      5-min Rain = 0
KFL1 262226Z 22006KT 24/02 A3032 RMK A01 T02350023  RH  025%=      5-min Rain = 0
KFL1 262227Z 23008KT 23/02 A3032 RMK A01 T02340023  RH  025%=      5-min Rain = 0
KFL1 262228Z 23011KT 23/02 A3032 RMK A01 T02330021  RH  025%=      5-min Rain = 0
KFL1 262229Z 23006G11KT 23/02 A3032 RMK A01 T02320023  RH  025%=      5-min Rain = 0
KFL1 262230Z 22008KT 24/02 A3032 RMK A01 T02350021  RH  025%=      5-min Rain = 0
KFL1 262231Z 22006KT 24/03 A3032 RMK A01 T02380027  RH  025%=      5-min Rain = 0
KFL1 262232Z 21010KT 24/03 A3032 RMK A01 T02420030  RH  025%=      5-min Rain = 0
KFL1 262233Z 21006KT 24/01 A3032 RMK A01 T02440013  RH  022%=      5-min Rain = 0
KFL1 262234Z 21007KT 25/02 A3032 RMK A01 T02460023  RH  023%=      5-min Rain = 0
KFL1 262235Z 18006KT 25/02 A3032 RMK A01 T02490022  RH  023%=      5-min Rain = 0
KFL1 262236Z 18006KT 25/02 A3032 RMK A01 T02530015  RH  021%=      5-min Rain = 0
KFL1 262237Z 20005KT 25/02 A3032 RMK A01 T02530022  RH  022%=      5-min Rain = 0
KFL1 262238Z 18006KT 25/02 A3032 RMK A01 T02520018  RH  022%=      5-min Rain = 0
KFL1 262239Z 21008KT 25/02 A3032 RMK A01 T02500024  RH  023%=      5-min Rain = 0
KFL1 262240Z 21008KT 25/01 A3032 RMK A01 T02470006  RH  021%=      5-min Rain = 0
KFL1 262241Z 21010KT 24/01 A3032 RMK A01 T02430005  RH  021%=      5-min Rain = 0
KFL1 262242Z 22009KT 24/01 A3032 RMK A01 T02390005  RH  021%=      5-min Rain = 0
KFL1 262243Z 21008KT 24/01 A3032 RMK A01 T02360012  RH  023%=      5-min Rain = 0
KFL1 262244Z 21007KT 24/02 A3032 RMK A01 T02360015  RH  023%=      5-min Rain = 0
KFL1 262245Z 21008KT 23/02 A3032 RMK A01 T02340017  RH  024%=      5-min Rain = 0
KFL1 262246Z 20006KT 23/02 A3032 RMK A01 T02340023  RH  025%=      5-min Rain = 0
KFL1 262247Z 20008KT 24/02 A3032 RMK A01 T02350019  RH  024%=      5-min Rain = 0
KFL1 262248Z 21006KT 24/01 A3032 RMK A01 T02360008  RH  022%=      5-min Rain = 0
KFL1 262249Z 21008G13KT 24/02 A3032 RMK A01 T02400020  RH  024%=      5-min Rain = 0
KFL1 262250Z 22010KT 24/03 A3032 RMK A01 T02430027  RH  024%=      5-min Rain = 0
KFL1 262251Z 21010KT 25/03 A3032 RMK A01 T02490032  RH  024%=      5-min Rain = 0
KFL1 262252Z 20009KT 25/03 A3032 RMK A01 T02510025  RH  023%=      5-min Rain = 0
KFL1 262253Z 20008KT 25/02 A3032 RMK A01 T02530023  RH  022%=      5-min Rain = 0
KFL1 262254Z 20008KT 25/02 A3032 RMK A01 T02520016  RH  021%=      5-min Rain = 0
KFL1 262255Z 20007KT 25/02 A3032 RMK A01 T02490019  RH  022%=      5-min Rain = 0
KFL1 262256Z 18007KT 25/02 A3032 RMK A01 T02500022  RH  023%=      5-min Rain = 0
KFL1 262257Z 20008KT 25/02 A3032 RMK A01 T02500019  RH  022%=      5-min Rain = 0
KFL1 262258Z 19008KT 25/01 A3032 RMK A01 T02530013  RH  021%=      5-min Rain = 0
KFL1 262259Z 20005KT 26/03 A3032 RMK A01 T02550029  RH  023%=      5-min Rain = 0
KFL1 262300Z 18004KT 26/03 A3032 RMK A01 T02570030  RH  023%=      5-min Rain = 0
KFL1 262301Z 19009KT 26/02 A3032 RMK A01 T02600023  RH  022%=      5-min Rain = 0
KFL1 262302Z 21008KT 26/02 A3032 RMK A01 T02610022  RH  021%=      5-min Rain = 0
KFL1 262303Z 19006KT 26/02 A3032 RMK A01 T02590019  RH  021%=      5-min Rain = 0
KFL1 262304Z 18007KT 26/02 A3032 RMK A01 T02560022  RH  022%=      5-min Rain = 0
KFL1 262305Z 20006KT 25/02 A3032 RMK A01 T02540023  RH  022%=      5-min Rain = 0
KFL1 262306Z 21006KT 25/03 A3032 RMK A01 T02530025  RH  023%=      5-min Rain = 0
KFL1 262307Z 20007KT 25/02 A3032 RMK A01 T02530020  RH  022%=      5-min Rain = 0
KFL1 262308Z 23007KT 25/02 A3032 RMK A01 T02500018  RH  022%=      5-min Rain = 0
KFL1 262309Z 22007KT 25/03 A3032 RMK A01 T02500031  RH  024%=      5-min Rain = 0
KFL1 262310Z 21006KT 25/01 A3032 RMK A01 T02470011  RH  021%=      5-min Rain = 0
KFL1 262311Z 22005KT 25/01 A3032 RMK A01 T02450007  RH  021%=      5-min Rain = 0
KFL1 262312Z 23007KT 24/02 A3032 RMK A01 T02430018  RH  023%=      5-min Rain = 0
KFL1 262313Z 20007KT 24/02 A3032 RMK A01 T02420024  RH  024%=      5-min Rain = 0
KFL1 262314Z 22007KT 24/03 A3032 RMK A01 T02380028  RH  025%=      5-min Rain = 0
KFL1 262315Z 23005KT 24/03 A3032 RMK A01 T02380029  RH  026%=      5-min Rain = 0
KFL1 262316Z 21004KT 24/02 A3032 RMK A01 T02380017  RH  023%=      5-min Rain = 0
KFL1 262317Z 21003KT 24/02 A3032 RMK A01 T02360021  RH  024%=      5-min Rain = 0
KFL1 262318Z 23004KT 24/01 A3032 RMK A01 T02360010  RH  022%=      5-min Rain = 0
KFL1 262319Z 17003KT 24/02 A3032 RMK A01 T02370020  RH  024%=      5-min Rain = 0
KFL1 262320Z 20003KT 24/02 A3032 RMK A01 T02370024  RH  025%=      5-min Rain = 0
KFL1 262321Z 19004KT 24/03 A3032 RMK A01 T02380029  RH  026%=      5-min Rain = 0
KFL1 262322Z 19004KT 24/04 A3032 RMK A01 T02380039  RH  027%=      5-min Rain = 0
KFL1 262323Z 19005KT 24/03 A3032 RMK A01 T02400030  RH  025%=      5-min Rain = 0
KFL1 262324Z 18006KT 24/02 A3031 RMK A01 T02420020  RH  023%=      5-min Rain = 0
KFL1 262325Z 19007KT 24/02 A3031 RMK A01 T02410022  RH  024%=      5-min Rain = 0
KFL1 262326Z 18008KT 24/02 A3031 RMK A01 T02400019  RH  023%=      5-min Rain = 0
KFL1 262327Z 18007KT 24/02 A3031 RMK A01 T02420018  RH  023%=      5-min Rain = 0
KFL1 262328Z 20007KT 24/02 A3031 RMK A01 T02430022  RH  024%=      5-min Rain = 0
KFL1 262329Z 20004KT 25/03 A3031 RMK A01 T02460032  RH  025%=      5-min Rain = 0
KFL1 262330Z 22005KT 25/03 A3031 RMK A01 T02490027  RH  024%=      5-min Rain = 0
KFL1 262331Z 22005KT 25/01 A3031 RMK A01 T02510010  RH  021%=      5-min Rain = 0
KFL1 262332Z 20005KT 25/03 A3031 RMK A01 T02510033  RH  024%=      5-min Rain = 0
KFL1 262333Z 21007KT 25/03 A3031 RMK A01 T02540030  RH  023%=      5-min Rain = 0
KFL1 262334Z 20005KT 25/03 A3031 RMK A01 T02540025  RH  023%=      5-min Rain = 0
KFL1 262335Z 18005KT 26/03 A3031 RMK A01 T02550031  RH  023%=      5-min Rain = 0
KFL1 262336Z 21006KT 26/03 A3031 RMK A01 T02560029  RH  023%=      5-min Rain = 0
KFL1 262337Z 20006KT 26/02 A3031 RMK A01 T02550020  RH  022%=      5-min Rain = 0
KFL1 262338Z 20005KT 26/02 A3031 RMK A01 T02560019  RH  021%=      5-min Rain = 0
KFL1 262339Z 18007KT 26/02 A3031 RMK A01 T02570020  RH  021%=      5-min Rain = 0
KFL1 262340Z 18006KT 26/02 A3031 RMK A01 T02570018  RH  021%=      5-min Rain = 0
KFL1 262341Z 18004KT 26/02 A3031 RMK A01 T02570019  RH  021%=      5-min Rain = 0
KFL1 262342Z 19004KT 26/01 A3031 RMK A01 T02590011  RH  020%=      5-min Rain = 0
KFL1 262343Z 20004KT 26/02 A3031 RMK A01 T02580016  RH  021%=      5-min Rain = 0
KFL1 262344Z 21003KT 26/02 A3031 RMK A01 T02600017  RH  021%=      5-min Rain = 0
KFL1 262345Z 19003KT 26/03 A3031 RMK A01 T02610027  RH  022%=      5-min Rain = 0
KFL1 262346Z 17002KT 26/02 A3031 RMK A01 T02640017  RH  020%=      5-min Rain = 0
KFL1 262347Z 17004KT 26/02 A3031 RMK A01 T02630020  RH  021%=      5-min Rain = 0
KFL1 262348Z 20007KT 26/01 A3031 RMK A01 T02640011  RH  019%=      5-min Rain = 0
KFL1 262349Z 19004KT 26/00 A3031 RMK A01 T02630002  RH  018%=      5-min Rain = 0
KFL1 262350Z 21003KT 26/M02 A3031 RMK A01 T02621016  RH  016%=      5-min Rain = 0
KFL1 262351Z 22002KT 26/M01 A303 RMK A01 T02591006  RH  018%=      5-min Rain = 0
KFL1 262352Z 22003KT 26/01 A303 RMK A01 T02590008  RH  019%=      5-min Rain = 0
KFL1 262353Z 20004KT 26/00 A303 RMK A01 T02580003  RH  019%=      5-min Rain = 0
KFL1 262354Z 24004KT 26/01 A303 RMK A01 T02550007  RH  020%=      5-min Rain = 0
KFL1 262355Z 24005KT 25/01 A303 RMK A01 T02520014  RH  021%=      5-min Rain = 0
KFL1 262356Z 24005KT 25/02 A303 RMK A01 T02510017  RH  022%=      5-min Rain = 0
KFL1 262357Z 22007KT 25/02 A303 RMK A01 T02470020  RH  023%=      5-min Rain = 0
KFL1 262358Z 22010KT 24/01 A303 RMK A01 T02430012  RH  022%=      5-min Rain = 0
KFL1 262359Z 22008KT 24/01 A303 RMK A01 T02410007  RH  021%=      5-min Rain = 0
KFL1 270000Z 21007KT 24/01 A303 RMK A01 T02410011  RH  022%=      5-min Rain = 0
KFL1 270001Z 22006KT 24/01 A303 RMK A01 T02410008  RH  021%=      5-min Rain = 0
KFL1 270002Z 23009KT 24/01 A303 RMK A01 T02410014  RH  023%=      5-min Rain = 0
KFL1 270003Z 23007KT 24/00 A303 RMK A01 T02400003  RH  021%=      5-min Rain = 0
KFL1 270004Z 23006KT 24/01 A303 RMK A01 T02390011  RH  022%=      5-min Rain = 0
KFL1 270005Z 22005KT 24/02 A303 RMK A01 T02370018  RH  024%=      5-min Rain = 0
KFL1 270006Z 23004KT 23/02 A303 RMK A01 T02340023  RH  025%=      5-min Rain = 0
KFL1 270007Z 23005KT 23/03 A303 RMK A01 T02330026  RH  026%=      5-min Rain = 0
KFL1 270008Z 22004KT 23/03 A303 RMK A01 T02340028  RH  026%=      5-min Rain = 0
KFL1 270009Z 21005KT 23/02 A303 RMK A01 T02340021  RH  025%=      5-min Rain = 0
KFL1 270010Z 18003KT 24/02 A303 RMK A01 T02360019  RH  024%=      5-min Rain = 0
KFL1 270011Z 20002KT 24/02 A303 RMK A01 T02380018  RH  024%=      5-min Rain = 0
KFL1 270012Z 20003KT 24/02 A303 RMK A01 T02410019  RH  023%=      5-min Rain = 0
KFL1 270013Z 19004KT 24/01 A303 RMK A01 T02430013  RH  022%=      5-min Rain = 0
KFL1 270014Z 19003KT 25/02 A303 RMK A01 T02450015  RH  022%=      5-min Rain = 0
KFL1 270015Z 22003KT 25/01 A303 RMK A01 T02480013  RH  022%=      5-min Rain = 0
KFL1 270016Z 20004KT 25/02 A303 RMK A01 T02490022  RH  023%=      5-min Rain = 0
KFL1 270017Z 21003KT 25/01 A303 RMK A01 T02520010  RH  020%=      5-min Rain = 0
KFL1 270018Z 22004KT 25/01 A303 RMK A01 T02510013  RH  021%=      5-min Rain = 0
KFL1 270019Z 23005KT 25/02 A303 RMK A01 T02530021  RH  022%=      5-min Rain = 0
KFL1 270020Z 22005KT 25/01 A303 RMK A01 T02510014  RH  021%=      5-min Rain = 0
KFL1 270021Z 22004KT 25/02 A303 RMK A01 T02530019  RH  022%=      5-min Rain = 0
KFL1 270022Z 23005KT 25/02 A303 RMK A01 T02530024  RH  023%=      5-min Rain = 0
KFL1 270023Z 24007KT 25/02 A303 RMK A01 T02520024  RH  023%=      5-min Rain = 0
KFL1 270024Z 25006KT 25/01 A303 RMK A01 T02500005  RH  020%=      5-min Rain = 0
KFL1 270025Z 26005KT 25/M00 A303 RMK A01 T02491002  RH  019%=      5-min Rain = 0
KFL1 270026Z 24004KT 25/01 A303 RMK A01 T02500008  RH  021%=      5-min Rain = 0
KFL1 270027Z 26004KT 25/02 A303 RMK A01 T02490016  RH  022%=      5-min Rain = 0
KFL1 270028Z 26004KT 25/01 A303 RMK A01 T02490013  RH  021%=      5-min Rain = 0
KFL1 270029Z 24005KT 25/02 A303 RMK A01 T02510023  RH  023%=      5-min Rain = 0
KFL1 270030Z 23005KT 25/03 A303 RMK A01 T02510027  RH  023%=      5-min Rain = 0
KFL1 270031Z 21005KT 25/02 A303 RMK A01 T02510018  RH  022%=      5-min Rain = 0
KFL1 270032Z 22006KT 25/02 A303 RMK A01 T02500018  RH  022%=      5-min Rain = 0
KFL1 270033Z 23007KT 25/01 A303 RMK A01 T02460010  RH  021%=      5-min Rain = 0
KFL1 270034Z 24007KT 25/02 A303 RMK A01 T02460019  RH  023%=      5-min Rain = 0
KFL1 270035Z 24007KT 24/02 A303 RMK A01 T02440018  RH  023%=      5-min Rain = 0
KFL1 270036Z 24007KT 24/01 A303 RMK A01 T02410014  RH  023%=      5-min Rain = 0
KFL1 270037Z 24006KT 24/01 A303 RMK A01 T02400013  RH  022%=      5-min Rain = 0
KFL1 270038Z 24005KT 24/01 A303 RMK A01 T02390011  RH  022%=      5-min Rain = 0
KFL1 270039Z 24004KT 24/02 A303 RMK A01 T02390018  RH  023%=      5-min Rain = 0
KFL1 270040Z 25003KT 24/03 A303 RMK A01 T02410026  RH  025%=      5-min Rain = 0
KFL1 270041Z 24005KT 24/04 A303 RMK A01 T02420035  RH  026%=      5-min Rain = 0
KFL1 270042Z 23006KT 24/03 A303 RMK A01 T02420031  RH  025%=      5-min Rain = 0
KFL1 270043Z 22006KT 24/02 A303 RMK A01 T02430018  RH  023%=      5-min Rain = 0
KFL1 270044Z 23006KT 24/M00 A303 RMK A01 T02421002  RH  020%=      5-min Rain = 0
KFL1 270045Z 23006KT 24/00 A303 RMK A01 T02430001  RH  020%=      5-min Rain = 0
KFL1 270046Z 22004KT 24/01 A303 RMK A01 T02440007  RH  021%=      5-min Rain = 0
KFL1 270047Z 23004KT 24/02 A303 RMK A01 T02440020  RH  023%=      5-min Rain = 0
KFL1 270048Z 23004KT 24/02 A303 RMK A01 T02440015  RH  022%=      5-min Rain = 0
KFL1 270049Z 21003KT 25/03 A303 RMK A01 T02450025  RH  024%=      5-min Rain = 0
KFL1 270050Z 21003KT 25/00 A303 RMK A01 T02460004  RH  020%=      5-min Rain = 0
KFL1 270051Z 24002KT 25/00 A303 RMK A01 T02470002  RH  020%=      5-min Rain = 0
KFL1 270052Z 25002KT 25/02 A303 RMK A01 T02470018  RH  022%=      5-min Rain = 0
KFL1 270053Z 23002KT 25/02 A303 RMK A01 T02470022  RH  023%=      5-min Rain = 0
KFL1 270054Z 23003KT 25/02 A303 RMK A01 T02460020  RH  023%=      5-min Rain = 0
KFL1 270055Z 23003KT 25/03 A303 RMK A01 T02470028  RH  024%=      5-min Rain = 0
KFL1 270056Z 21004KT 25/02 A303 RMK A01 T02460023  RH  023%=      5-min Rain = 0
KFL1 270057Z 20004KT 25/02 A303 RMK A01 T02460023  RH  023%=      5-min Rain = 0
KFL1 270058Z 20004KT 25/02 A303 RMK A01 T02460023  RH  023%=      5-min Rain = 0
KFL1 270059Z 20003KT 25/02 A303 RMK A01 T02460019  RH  023%=      5-min Rain = 0
KFL1 270100Z 22003KT 25/02 A303 RMK A01 T02470024  RH  023%=      5-min Rain = 0
KFL1 270101Z 22002KT 25/02 A303 RMK A01 T02490018  RH  022%=      5-min Rain = 0
KFL1 270102Z 22003KT 25/02 A303 RMK A01 T02490023  RH  023%=      5-min Rain = 0
KFL1 270103Z 20002KT 25/03 A303 RMK A01 T02500031  RH  024%=      5-min Rain = 0
KFL1 270104Z 22003KT 25/02 A303 RMK A01 T02510023  RH  023%=      5-min Rain = 0
KFL1 270105Z 21003KT 25/02 A303 RMK A01 T02510023  RH  023%=      5-min Rain = 0
KFL1 270106Z 22003KT 25/M00 A303 RMK A01 T02501001  RH  019%=      5-min Rain = 0
KFL1 270107Z 22002KT 25/01 A303 RMK A01 T02510006  RH  020%=      5-min Rain = 0
KFL1 270108Z 25000KT 25/M02 A303 RMK A01 T02491018  RH  017%=      5-min Rain = 0
KFL1 270109Z 26003KT 25/00 A303 RMK A01 T02510002  RH  020%=      5-min Rain = 0
KFL1 270110Z 27004KT 25/03 A303 RMK A01 T02470027  RH  024%=      5-min Rain = 0
KFL1 270111Z 26004KT 25/04 A303 RMK A01 T02450044  RH  027%=      5-min Rain = 0
KFL1 270112Z 28004KT 24/05 A303 RMK A01 T02430047  RH  028%=      5-min Rain = 0
KFL1 270113Z 26006KT 24/05 A303 RMK A01 T02400045  RH  028%=      5-min Rain = 0
KFL1 270114Z 26004KT 24/04 A303 RMK A01 T02360035  RH  027%=      5-min Rain = 0
KFL1 270115Z 25004KT 24/01 A303 RMK A01 T02360014  RH  023%=      5-min Rain = 0
KFL1 270116Z 23003KT 24/01 A303 RMK A01 T02360012  RH  023%=      5-min Rain = 0
KFL1 270117Z 24004KT 24/02 A303 RMK A01 T02360018  RH  024%=      5-min Rain = 0
KFL1 270118Z 24003KT 24/03 A303 RMK A01 T02370032  RH  026%=      5-min Rain = 0
KFL1 270119Z 24003KT 24/03 A303 RMK A01 T02350034  RH  027%=      5-min Rain = 0
KFL1 270120Z 24004KT 24/04 A303 RMK A01 T02350037  RH  027%=      5-min Rain = 0
KFL1 270121Z 25004KT 23/04 A303 RMK A01 T02340042  RH  029%=      5-min Rain = 0
KFL1 270122Z 26004KT 23/05 A303 RMK A01 T02340053  RH  031%=      5-min Rain = 0
KFL1 270123Z 25004KT 23/06 A303 RMK A01 T02330063  RH  033%=      5-min Rain = 0
KFL1 270124Z 25004KT 23/04 A303 RMK A01 T02320044  RH  030%=      5-min Rain = 0
KFL1 270125Z 25003KT 23/03 A303 RMK A01 T02330031  RH  027%=      5-min Rain = 0
KFL1 270126Z 25003KT 23/05 A303 RMK A01 T02330054  RH  031%=      5-min Rain = 0
KFL1 270127Z 24002KT 23/05 A303 RMK A01 T02340047  RH  030%=      5-min Rain = 0
KFL1 270128Z 25004KT 23/05 A303 RMK A01 T02340051  RH  030%=      5-min Rain = 0
KFL1 270129Z 24003KT 23/05 A303 RMK A01 T02310051  RH  031%=      5-min Rain = 0
KFL1 270130Z 24003KT 23/05 A303 RMK A01 T02310046  RH  030%=      5-min Rain = 0
KFL1 270131Z 24003KT 23/04 A303 RMK A01 T02270039  RH  029%=      5-min Rain = 0
KFL1 270132Z 24003KT 23/04 A303 RMK A01 T02250041  RH  030%=      5-min Rain = 0
KFL1 270133Z 24004KT 22/04 A303 RMK A01 T02240038  RH  030%=      5-min Rain = 0
KFL1 270134Z 25004KT 22/04 A303 RMK A01 T02220044  RH  031%=      5-min Rain = 0
KFL1 270135Z 25004KT 22/05 A303 RMK A01 T02200048  RH  033%=      5-min Rain = 0
KFL1 270136Z 25004KT 22/05 A303 RMK A01 T02180050  RH  033%=      5-min Rain = 0
KFL1 270137Z 25003KT 22/05 A303 RMK A01 T02150045  RH  033%=      5-min Rain = 0
KFL1 270138Z 25003KT 21/04 A303 RMK A01 T02120039  RH  032%=      5-min Rain = 0
KFL1 270139Z 24004KT 21/04 A303 RMK A01 T02090039  RH  033%=      5-min Rain = 0
KFL1 270140Z 24004KT 21/04 A303 RMK A01 T02070040  RH  033%=      5-min Rain = 0
KFL1 270141Z 24005KT 21/03 A303 RMK A01 T02080026  RH  030%=      5-min Rain = 0
KFL1 270142Z 23005KT 21/02 A303 RMK A01 T02070018  RH  028%=      5-min Rain = 0
KFL1 270143Z 24005KT 21/02 A303 RMK A01 T02090019  RH  028%=      5-min Rain = 0
KFL1 270144Z 23005KT 21/01 A303 RMK A01 T02070010  RH  027%=      5-min Rain = 0
KFL1 270145Z 22006KT 21/01 A303 RMK A01 T02090010  RH  027%=      5-min Rain = 0
KFL1 270146Z 22006KT 21/01 A303 RMK A01 T02080007  RH  026%=      5-min Rain = 0
KFL1 270147Z 23005KT 21/01 A303 RMK A01 T02070006  RH  026%=      5-min Rain = 0
KFL1 270148Z 23006KT 21/01 A303 RMK A01 T02080012  RH  027%=      5-min Rain = 0
KFL1 270149Z 23005KT 21/02 A303 RMK A01 T02060019  RH  029%=      5-min Rain = 0
KFL1 270150Z 23005KT 21/02 A303 RMK A01 T02050020  RH  029%=      5-min Rain = 0
KFL1 270151Z 23004KT 20/02 A303 RMK A01 T02040019  RH  029%=      5-min Rain = 0
KFL1 270152Z 24004KT 20/03 A303 RMK A01 T02030032  RH  032%=      5-min Rain = 0
KFL1 270153Z 24005KT 20/04 A303 RMK A01 T02000041  RH  035%=      5-min Rain = 0
KFL1 270154Z 24004KT 20/04 A303 RMK A01 T01980044  RH  036%=      5-min Rain = 0
KFL1 270155Z 24004KT 20/04 A303 RMK A01 T01950039  RH  035%=      5-min Rain = 0
KFL1 270156Z 24005KT 19/04 A303 RMK A01 T01940041  RH  036%=      5-min Rain = 0
KFL1 270157Z 24004KT 19/04 A303 RMK A01 T01930038  RH  036%=      5-min Rain = 0
KFL1 270158Z 23004KT 19/03 A303 RMK A01 T01920031  RH  034%=      5-min Rain = 0
KFL1 270159Z 23004KT 19/02 A303 RMK A01 T01920022  RH  032%=      5-min Rain = 0
KFL1 270200Z 23004KT 19/02 A303 RMK A01 T01910021  RH  032%=      5-min Rain = 0
KFL1 270201Z 23004KT 19/03 A3031 RMK A01 T01920027  RH  033%=      5-min Rain = 0
KFL1 270202Z 25003KT 19/05 A3031 RMK A01 T01930049  RH  039%=      5-min Rain = 0
KFL1 270203Z 26003KT 19/05 A3031 RMK A01 T01890052  RH  040%=      5-min Rain = 0
KFL1 270204Z 26004KT 19/05 A3031 RMK A01 T01870052  RH  041%=      5-min Rain = 0
KFL1 270205Z 26004KT 19/05 A3031 RMK A01 T01870048  RH  040%=      5-min Rain = 0
KFL1 270206Z 27003KT 19/04 A3031 RMK A01 T01850037  RH  037%=      5-min Rain = 0
KFL1 270207Z 27003KT 19/04 A3031 RMK A01 T01850038  RH  038%=      5-min Rain = 0
KFL1 270208Z 27003KT 18/04 A3031 RMK A01 T01830039  RH  038%=      5-min Rain = 0
KFL1 270209Z 27003KT 18/04 A3031 RMK A01 T01840042  RH  039%=      5-min Rain = 0
KFL1 270210Z 27003KT 18/05 A3031 RMK A01 T01820045  RH  040%=      5-min Rain = 0
KFL1 270211Z 28004KT 18/05 A3031 RMK A01 T01840045  RH  040%=      5-min Rain = 0
KFL1 270212Z 28003KT 18/04 A3031 RMK A01 T01810042  RH  040%=      5-min Rain = 0
KFL1 270213Z 27004KT 18/04 A3031 RMK A01 T01800040  RH  039%=      5-min Rain = 0
KFL1 270214Z 28004KT 18/04 A3031 RMK A01 T01810044  RH  040%=      5-min Rain = 0
KFL1 270215Z 28004KT 18/05 A3031 RMK A01 T01810045  RH  041%=      5-min Rain = 0
KFL1 270216Z 28004KT 18/04 A3031 RMK A01 T01780041  RH  040%=      5-min Rain = 0
KFL1 270217Z 28004KT 18/04 A3031 RMK A01 T01780039  RH  039%=      5-min Rain = 0
KFL1 270218Z 28004KT 18/04 A3031 RMK A01 T01770035  RH  039%=      5-min Rain = 0
KFL1 270219Z 28004KT 18/03 A3031 RMK A01 T01760033  RH  039%=      5-min Rain = 0
KFL1 270220Z 28004KT 18/03 A3031 RMK A01 T01770033  RH  038%=      5-min Rain = 0
KFL1 270221Z 28004KT 18/03 A3031 RMK A01 T01760033  RH  038%=      5-min Rain = 0
KFL1 270222Z 28005KT 18/03 A3031 RMK A01 T01750031  RH  038%=      5-min Rain = 0
KFL1 270223Z 28005KT 18/03 A3031 RMK A01 T01750030  RH  038%=      5-min Rain = 0
KFL1 270224Z 28005KT 17/03 A3031 RMK A01 T01710030  RH  039%=      5-min Rain = 0
KFL1 270225Z 28005KT 17/03 A3031 RMK A01 T01710027  RH  038%=      5-min Rain = 0
KFL1 270226Z 28005KT 17/03 A3031 RMK A01 T01700028  RH  038%=      5-min Rain = 0
KFL1 270227Z 28005KT 17/03 A3031 RMK A01 T01690027  RH  039%=      5-min Rain = 0
KFL1 270228Z 28005KT 17/02 A3031 RMK A01 T01690023  RH  038%=      5-min Rain = 0
KFL1 270229Z 28004KT 17/02 A3031 RMK A01 T01670021  RH  037%=      5-min Rain = 0
KFL1 270230Z 28005KT 17/02 A3031 RMK A01 T01670021  RH  037%=      5-min Rain = 0
KFL1 270231Z 28005KT 17/02 A3031 RMK A01 T01670018  RH  037%=      5-min Rain = 0
KFL1 270232Z 28005KT 17/02 A3031 RMK A01 T01680018  RH  036%=      5-min Rain = 0
KFL1 270233Z 28005KT 17/02 A3031 RMK A01 T01670018  RH  037%=      5-min Rain = 0
KFL1 270234Z 28005KT 17/02 A3031 RMK A01 T01660016  RH  036%=      5-min Rain = 0
KFL1 270235Z 28005KT 17/02 A3031 RMK A01 T01660016  RH  036%=      5-min Rain = 0
KFL1 270236Z 28005KT 17/02 A3031 RMK A01 T01650015  RH  036%=      5-min Rain = 0
KFL1 270237Z 28005KT 17/02 A3031 RMK A01 T01650021  RH  038%=      5-min Rain = 0
KFL1 270238Z 29005KT 16/02 A3031 RMK A01 T01620020  RH  038%=      5-min Rain = 0
KFL1 270239Z 29005KT 16/02 A3031 RMK A01 T01610016  RH  037%=      5-min Rain = 0
KFL1 270240Z 29006KT 16/01 A3031 RMK A01 T01600013  RH  037%=      5-min Rain = 0
KFL1 270241Z 29005KT 16/01 A3031 RMK A01 T01610013  RH  037%=      5-min Rain = 0
KFL1 270242Z 29005KT 16/02 A3031 RMK A01 T01600016  RH  038%=      5-min Rain = 0
KFL1 270243Z 30005KT 16/02 A3031 RMK A01 T01580017  RH  039%=      5-min Rain = 0
KFL1 270244Z 30005KT 16/01 A3031 RMK A01 T01570014  RH  038%=      5-min Rain = 0
KFL1 270245Z 31005KT 16/02 A3031 RMK A01 T01550015  RH  039%=      5-min Rain = 0
KFL1 270246Z 31005KT 15/02 A3031 RMK A01 T01540020  RH  040%=      5-min Rain = 0
KFL1 270247Z 31005KT 15/02 A3031 RMK A01 T01510024  RH  042%=      5-min Rain = 0
KFL1 270248Z 30006KT 15/02 A3031 RMK A01 T01460020  RH  042%=      5-min Rain = 0
KFL1 270249Z 30006KT 15/02 A3031 RMK A01 T01450020  RH  043%=      5-min Rain = 0
KFL1 270250Z 31006KT 14/01 A3031 RMK A01 T01440014  RH  041%=      5-min Rain = 0
KFL1 270251Z 31006KT 14/01 A3031 RMK A01 T01440014  RH  041%=      5-min Rain = 0
KFL1 270252Z 30006KT 14/01 A3031 RMK A01 T01440011  RH  040%=      5-min Rain = 0
KFL1 270253Z 30006KT 14/01 A3031 RMK A01 T01440011  RH  040%=      5-min Rain = 0
KFL1 270254Z 31006KT 15/01 A3031 RMK A01 T01460007  RH  039%=      5-min Rain = 0
KFL1 270255Z 31006KT 15/01 A3031 RMK A01 T01460009  RH  039%=      5-min Rain = 0
KFL1 270256Z 32005KT 15/02 A3031 RMK A01 T01460017  RH  042%=      5-min Rain = 0
KFL1 270257Z 32005KT 14/02 A3031 RMK A01 T01400023  RH  045%=      5-min Rain = 0
KFL1 270258Z 33005KT 14/03 A3031 RMK A01 T01370027  RH  048%=      5-min Rain = 0
KFL1 270259Z 33005KT 13/02 A3031 RMK A01 T01300024  RH  049%=      5-min Rain = 0
KFL1 270300Z 33005KT 13/03 A3031 RMK A01 T01280025  RH  050%=      5-min Rain = 0
KFL1 270301Z 33005KT 13/03 A3031 RMK A01 T01270027  RH  051%=      5-min Rain = 0
KFL1 270302Z 33005KT 13/03 A3031 RMK A01 T01260031  RH  052%=      5-min Rain = 0
KFL1 270303Z 33005KT 12/03 A3031 RMK A01 T01230030  RH  053%=      5-min Rain = 0
KFL1 270304Z 34005KT 12/03 A3031 RMK A01 T01240031  RH  053%=      5-min Rain = 0
KFL1 270305Z 34005KT 12/03 A3031 RMK A01 T01230029  RH  053%=      5-min Rain = 0
KFL1 270306Z 34005KT 12/03 A3031 RMK A01 T01230028  RH  052%=      5-min Rain = 0
KFL1 270307Z 35005KT 12/03 A3031 RMK A01 T01240026  RH  051%=      5-min Rain = 0
KFL1 270308Z 35005KT 13/03 A3031 RMK A01 T01260026  RH  051%=      5-min Rain = 0
KFL1 270309Z 35006KT 13/03 A3032 RMK A01 T01250025  RH  050%=      5-min Rain = 0
KFL1 270310Z 36006KT 13/03 A3032 RMK A01 T01270028  RH  051%=      5-min Rain = 0
KFL1 270311Z 35006KT 13/03 A3032 RMK A01 T01270029  RH  051%=      5-min Rain = 0
KFL1 270312Z 35006KT 13/03 A3032 RMK A01 T01270032  RH  052%=      5-min Rain = 0
KFL1 270313Z 35006KT 13/03 A3032 RMK A01 T01250032  RH  053%=      5-min Rain = 0
KFL1 270314Z 35006KT 12/03 A3032 RMK A01 T01240031  RH  053%=      5-min Rain = 0
KFL1 270315Z 35006KT 12/03 A3032 RMK A01 T01230027  RH  052%=      5-min Rain = 0
KFL1 270316Z 35007KT 12/03 A3032 RMK A01 T01240025  RH  051%=      5-min Rain = 0
KFL1 270317Z 35007KT 13/03 A3032 RMK A01 T01250026  RH  051%=      5-min Rain = 0
KFL1 270318Z 34007KT 13/03 A3032 RMK A01 T01250027  RH  051%=      5-min Rain = 0
KFL1 270319Z 34007KT 12/03 A3032 RMK A01 T01240027  RH  052%=      5-min Rain = 0
KFL1 270320Z 34007KT 12/03 A3032 RMK A01 T01240028  RH  052%=      5-min Rain = 0
KFL1 270321Z 35007KT 12/03 A3032 RMK A01 T01230028  RH  052%=      5-min Rain = 0
KFL1 270322Z 34007KT 12/03 A3032 RMK A01 T01220026  RH  052%=      5-min Rain = 0
KFL1 270323Z 34006KT 12/03 A3032 RMK A01 T01220026  RH  052%=      5-min Rain = 0
KFL1 270324Z 34006KT 12/03 A3032 RMK A01 T01240029  RH  052%=      5-min Rain = 0
KFL1 270325Z 34006KT 12/03 A3032 RMK A01 T01220028  RH  053%=      5-min Rain = 0
KFL1 270326Z 34006KT 12/03 A3032 RMK A01 T01230029  RH  053%=      5-min Rain = 0
KFL1 270327Z 34006KT 12/03 A3032 RMK A01 T01220029  RH  053%=      5-min Rain = 0
KFL1 270328Z 34006KT 12/03 A3032 RMK A01 T01220029  RH  053%=      5-min Rain = 0
KFL1 270329Z 34006KT 12/03 A3032 RMK A01 T01210027  RH  053%=      5-min Rain = 0
KFL1 270330Z 34006KT 12/03 A3032 RMK A01 T01210027  RH  052%=      5-min Rain = 0
KFL1 270331Z 34006KT 12/03 A3032 RMK A01 T01210025  RH  052%=      5-min Rain = 0
KFL1 270332Z 34006KT 12/03 A3032 RMK A01 T01230025  RH  051%=      5-min Rain = 0
KFL1 270333Z 34005KT 12/02 A3032 RMK A01 T01220022  RH  050%=      5-min Rain = 0
KFL1 270334Z 34005KT 12/02 A3032 RMK A01 T01220021  RH  050%=      5-min Rain = 0
KFL1 270335Z 34006KT 12/02 A3032 RMK A01 T01230022  RH  050%=      5-min Rain = 0
KFL1 270336Z 34005KT 12/02 A3032 RMK A01 T01230022  RH  050%=      5-min Rain = 0
KFL1 270337Z 34005KT 12/02 A3032 RMK A01 T01230021  RH  050%=      5-min Rain = 0
KFL1 270338Z 35005KT 12/02 A3032 RMK A01 T01230022  RH  050%=      5-min Rain = 0
KFL1 270339Z 35005KT 12/02 A3032 RMK A01 T01230023  RH  050%=      5-min Rain = 0
KFL1 270340Z 36005KT 12/02 A3032 RMK A01 T01230024  RH  051%=      5-min Rain = 0
KFL1 270341Z 00006KT 12/02 A3033 RMK A01 T01220024  RH  051%=      5-min Rain = 0
KFL1 270342Z 00006KT 12/02 A3033 RMK A01 T01220024  RH  051%=      5-min Rain = 0
KFL1 270343Z 00006KT 12/02 A3033 RMK A01 T01210023  RH  051%=      5-min Rain = 0
KFL1 270344Z 00006KT 12/02 A3033 RMK A01 T01210023  RH  051%=      5-min Rain = 0
KFL1 270345Z 00006KT 12/02 A3033 RMK A01 T01210022  RH  051%=      5-min Rain = 0
KFL1 270346Z 01006KT 12/02 A3033 RMK A01 T01210019  RH  050%=      5-min Rain = 0
KFL1 270347Z 01006KT 12/02 A3033 RMK A01 T01220017  RH  049%=      5-min Rain = 0
KFL1 270348Z 02005KT 12/01 A3033 RMK A01 T01220012  RH  047%=      5-min Rain = 0
KFL1 270349Z 02005KT 12/01 A3033 RMK A01 T01240008  RH  045%=      5-min Rain = 0
KFL1 270350Z 03005KT 13/01 A3033 RMK A01 T01250008  RH  045%=      5-min Rain = 0
KFL1 270351Z 03005KT 13/00 A3033 RMK A01 T01250004  RH  043%=      5-min Rain = 0
KFL1 270352Z 03005KT 13/00 A3033 RMK A01 T01270003  RH  043%=      5-min Rain = 0
KFL1 270353Z 03005KT 13/00 A3033 RMK A01 T01290003  RH  042%=      5-min Rain = 0
KFL1 270354Z 03005KT 13/00 A3033 RMK A01 T01290003  RH  042%=      5-min Rain = 0
KFL1 270355Z 03005KT 13/00 A3033 RMK A01 T01300002  RH  041%=      5-min Rain = 0
KFL1 270356Z 03005KT 13/00 A3033 RMK A01 T01310003  RH  041%=      5-min Rain = 0
KFL1 270357Z 03005KT 13/01 A3033 RMK A01 T01310006  RH  042%=      5-min Rain = 0
KFL1 270358Z 03005KT 13/00 A3033 RMK A01 T01320004  RH  042%=      5-min Rain = 0
KFL1 270359Z 03005KT 13/00 A3033 RMK A01 T01310003  RH  041%=      5-min Rain = 0
KFL1 270400Z 03005KT 13/01 A3033 RMK A01 T01320006  RH  042%=      5-min Rain = 0
KFL1 270401Z 04005KT 13/00 A3033 RMK A01 T01310001  RH  041%=      5-min Rain = 0
KFL1 270402Z 04005KT 13/M00 A3033 RMK A01 T01311002  RH  040%=      5-min Rain = 0
KFL1 270403Z 03005KT 13/M00 A3033 RMK A01 T01321003  RH  039%=      5-min Rain = 0
KFL1 270404Z 03005KT 13/M00 A3033 RMK A01 T01331002  RH  039%=      5-min Rain = 0
KFL1 270405Z 03005KT 13/M00 A3033 RMK A01 T01341001  RH  039%=      5-min Rain = 0
KFL1 270406Z 03005KT 13/01 A3033 RMK A01 T01340005  RH  041%=      5-min Rain = 0
KFL1 270407Z 04005KT 13/01 A3033 RMK A01 T01330011  RH  044%=      5-min Rain = 0
KFL1 270408Z 04005KT 13/01 A3033 RMK A01 T01300011  RH  044%=      5-min Rain = 0
KFL1 270409Z 04005KT 13/02 A3033 RMK A01 T01300015  RH  046%=      5-min Rain = 0
KFL1 270410Z 04005KT 13/02 A3033 RMK A01 T01260015  RH  047%=      5-min Rain = 0
KFL1 270411Z 04005KT 13/02 A3033 RMK A01 T01270015  RH  046%=      5-min Rain = 0
KFL1 270412Z 04005KT 12/02 A3033 RMK A01 T01240018  RH  048%=      5-min Rain = 0
KFL1 270413Z 03005KT 12/02 A3034 RMK A01 T01240021  RH  050%=      5-min Rain = 0
KFL1 270414Z 03005KT 12/02 A3034 RMK A01 T01220019  RH  049%=      5-min Rain = 0
KFL1 270415Z 03005KT 12/02 A3034 RMK A01 T01210019  RH  050%=      5-min Rain = 0
KFL1 270416Z 03005KT 12/02 A3034 RMK A01 T01200020  RH  050%=      5-min Rain = 0
KFL1 270417Z 04005KT 12/02 A3034 RMK A01 T01190021  RH  051%=      5-min Rain = 0
KFL1 270418Z 04006KT 12/02 A3034 RMK A01 T01180020  RH  051%=      5-min Rain = 0
KFL1 270419Z 04005KT 12/02 A3034 RMK A01 T01190020  RH  051%=      5-min Rain = 0
KFL1 270420Z 04006KT 12/02 A3034 RMK A01 T01180017  RH  050%=      5-min Rain = 0
KFL1 270421Z 03006KT 12/02 A3034 RMK A01 T01180019  RH  051%=      5-min Rain = 0
KFL1 270422Z 04005KT 12/02 A3034 RMK A01 T01180020  RH  051%=      5-min Rain = 0
KFL1 270423Z 03006KT 12/02 A3034 RMK A01 T01190022  RH  051%=      5-min Rain = 0
KFL1 270424Z 03005KT 12/02 A3034 RMK A01 T01170020  RH  051%=      5-min Rain = 0
KFL1 270425Z 03005KT 12/02 A3034 RMK A01 T01170019  RH  051%=      5-min Rain = 0
KFL1 270426Z 03005KT 12/02 A3034 RMK A01 T01170020  RH  051%=      5-min Rain = 0
KFL1 270427Z 03006KT 12/02 A3034 RMK A01 T01170020  RH  051%=      5-min Rain = 0
KFL1 270428Z 03006KT 12/02 A3034 RMK A01 T01180020  RH  051%=      5-min Rain = 0
KFL1 270429Z 03006KT 12/02 A3034 RMK A01 T01160019  RH  051%=      5-min Rain = 0
KFL1 270430Z 03006KT 12/02 A3034 RMK A01 T01170019  RH  051%=      5-min Rain = 0
KFL1 270431Z 03006KT 12/02 A3034 RMK A01 T01160018  RH  051%=      5-min Rain = 0
KFL1 270432Z 03006KT 12/02 A3034 RMK A01 T01180019  RH  051%=      5-min Rain = 0
KFL1 270433Z 03006KT 12/02 A3034 RMK A01 T01160015  RH  050%=      5-min Rain = 0
KFL1 270434Z 03006KT 12/02 A3034 RMK A01 T01170016  RH  050%=      5-min Rain = 0
KFL1 270435Z 03006KT 12/02 A3034 RMK A01 T01170016  RH  050%=      5-min Rain = 0
KFL1 270436Z 03006KT 12/02 A3034 RMK A01 T01180020  RH  051%=      5-min Rain = 0
KFL1 270437Z 03006KT 12/02 A3034 RMK A01 T01180023  RH  052%=      5-min Rain = 0
KFL1 270438Z 03006KT 12/02 A3034 RMK A01 T01160021  RH  052%=      5-min Rain = 0
KFL1 270439Z 03006KT 12/02 A3034 RMK A01 T01150020  RH  052%=      5-min Rain = 0
KFL1 270440Z 03006KT 12/02 A3034 RMK A01 T01160020  RH  052%=      5-min Rain = 0
KFL1 270441Z 02007KT 11/02 A3034 RMK A01 T01140020  RH  052%=      5-min Rain = 0
KFL1 270442Z 02007KT 12/02 A3034 RMK A01 T01160023  RH  053%=      5-min Rain = 0
KFL1 270443Z 02007KT 11/02 A3034 RMK A01 T01130019  RH  052%=      5-min Rain = 0
KFL1 270444Z 02007KT 12/02 A3034 RMK A01 T01150017  RH  051%=      5-min Rain = 0
KFL1 270445Z 02007KT 11/02 A3034 RMK A01 T01140016  RH  051%=      5-min Rain = 0
KFL1 270446Z 02007KT 12/02 A3034 RMK A01 T01150017  RH  051%=      5-min Rain = 0
KFL1 270447Z 02006KT 12/02 A3034 RMK A01 T01150016  RH  051%=      5-min Rain = 0
KFL1 270448Z 02007KT 12/02 A3034 RMK A01 T01160016  RH  050%=      5-min Rain = 0
KFL1 270449Z 02007KT 12/02 A3034 RMK A01 T01150015  RH  050%=      5-min Rain = 0
KFL1 270450Z 02007KT 12/02 A3034 RMK A01 T01150016  RH  050%=      5-min Rain = 0
KFL1 270451Z 02006KT 12/02 A3034 RMK A01 T01150015  RH  050%=      5-min Rain = 0
KFL1 270452Z 02006KT 12/01 A3034 RMK A01 T01160014  RH  050%=      5-min Rain = 0
KFL1 270453Z 02006KT 12/01 A3034 RMK A01 T01150013  RH  049%=      5-min Rain = 0
KFL1 270454Z 01007KT 12/01 A3034 RMK A01 T01160014  RH  050%=      5-min Rain = 0
KFL1 270455Z 01007KT 12/02 A3034 RMK A01 T01170016  RH  050%=      5-min Rain = 0
KFL1 270456Z 01008KT 12/01 A3034 RMK A01 T01160014  RH  050%=      5-min Rain = 0
KFL1 270457Z 01008KT 12/01 A3034 RMK A01 T01160014  RH  049%=      5-min Rain = 0
KFL1 270458Z 01007KT 12/01 A3034 RMK A01 T01160011  RH  048%=      5-min Rain = 0
KFL1 270459Z 01007KT 12/01 A3034 RMK A01 T01150011  RH  048%=      5-min Rain = 0

Page generated in 0.08 seconds.